• Join FlightAware (Why Join?)
  • Login
  • US Flag 
08:17AM EST


 

Airport Tracker/Info


-or-


 

Live Flight TrackerFlight Track Log ✈ AFL150 ✈ 13-Aug-2013 ✈ UUEE / SVO - MUHA / HAV

Flight Track Log - Related Links

Times and Time Zones

All times are in EDT time to prevent confusion due to time zone crossing. See the AFL150 flight status page for this flight to view local times or setup timezone preferences in your user account.

Time Position Orientation Groundspeed Altitude Reporting Facility
EDT Latitude Longitude Course Direction KTS MPH feet Rate Location/Type
09:49AM 55.9650 37.3690 256° West 186 214 1,300  Level FlightAware
09:49AM 55.9630 37.3540 257° West 182 209 1,800 2,220 Climbing FlightAware
09:50AM 55.9570 37.3170 254° West 190 219 2,600 1,320 Climbing FlightAware
09:50AM 55.9520 37.2850 254° West 212 244 2,800 900 Climbing FlightAware
09:50AM 55.9470 37.2490 256° West 236 272 3,200 1,020 Climbing FlightAware
09:50AM 55.9430 37.2190 257° West 256 295 3,400 1,200 Climbing FlightAware
09:51AM 55.9430 37.2080 270° West 262 302 3,600 2,400 Climbing FlightAware
09:51AM 55.9460 37.1640 277° West 268 308 4,400 2,220 Climbing FlightAware
09:51AM 55.9520 37.1210 284° West 276 318 5,100 2,100 Climbing FlightAware
09:52AM 55.9580 37.0770 284° West 276 318 5,800 2,160 Climbing FlightAware
09:52AM 55.9620 37.0330 279° West 275 316 6,600 2,400 Climbing FlightAware
09:52AM 55.9650 37.0100 283° West 279 321 7,000 2,820 Climbing FlightAware
09:52AM 55.9710 36.9890 297° West 279 321 7,500 2,880 Climbing FlightAware
09:52AM 55.9800 36.9590 298° West 279 321 8,200 2,700 Climbing FlightAware
09:53AM 55.9910 36.9180 296° West 281 323 9,100 2,520 Climbing FlightAware
09:53AM 56.0030 36.8770 298° West 279 321 10,000 1,620 Climbing FlightAware
09:54AM 56.0270 36.7890 296° West 314 361 10,800 1,020 Climbing FlightAware
09:54AM 56.0480 36.7150 297° West 345 397 11,200 1,860 Climbing FlightAware
09:55AM 56.0720 36.6250 296° West 344 396 12,800 2,460 Climbing FlightAware
09:56AM 56.1010 36.5220 297° West 350 403 14,300 2,100 Climbing FlightAware
09:56AM 56.1220 36.4440 296° West 355 409 15,300 2,040 Climbing FlightAware
09:57AM 56.1470 36.3500 296° West 360 414 16,600 2,040 Climbing FlightAware
09:57AM 56.1770 36.2410 296° West 368 423 17,900 1,980 Climbing FlightAware
09:58AM 56.1990 36.1590 296° West 370 426 18,900 1,980 Climbing FlightAware
09:58AM 56.2240 36.0620 295° West 372 428 20,100 1,920 Climbing FlightAware
09:59AM 56.2510 35.9640 296° West 374 430 21,200 1,560 Climbing FlightAware
10:00AM 56.2810 35.8500 295° West 384 442 22,100 1,380 Climbing FlightAware
10:00AM 56.3110 35.7340 295° West 390 449 23,100 1,560 Climbing FlightAware
10:01AM 56.3290 35.6760 299° West 396 456 23,700 1,680 Climbing FlightAware
10:01AM 56.3470 35.6400 312° West 407 468 24,100 1,380 Climbing FlightAware
10:01AM 56.3700 35.6110 325° Northwest 421 484 24,400 840 Climbing FlightAware
10:01AM 56.4060 35.5860 339° North 444 511 24,600 540 Climbing FlightAware
10:02AM 56.4800 35.5580 348° North 463 533 24,900 480 Climbing FlightAware
10:03AM 56.5540 35.5280 347° North 479 551 25,200 780 Climbing FlightAware
10:03AM 56.6430 35.4920 347° North 486 559 25,900 1,020 Climbing FlightAware
10:04AM 56.7170 35.4560 345° North 489 563 26,500 1,080 Climbing FlightAware
10:05AM 56.8060 35.4130 345° North 493 567 27,300 1,080 Climbing FlightAware
10:05AM 56.8720 35.3820 346° North 496 571 27,800 900 Climbing FlightAware
10:06AM 56.9510 35.3440 345° North 501 577 28,300 900 Climbing FlightAware
10:06AM 57.0290 35.3070 346° North 505 581 28,900 1,080 Climbing FlightAware
10:07AM 57.0960 35.2750 345° North 504 580 29,500 1,020 Climbing FlightAware
10:07AM 57.1840 35.2320 345° North 505 581 30,100 1,020 Climbing FlightAware
10:08AM 57.2770 35.1870 345° North 503 579 30,900 1,320 Climbing FlightAware
10:09AM 57.3440 35.1540 345° North 496 571 31,700 1,380 Climbing FlightAware
10:09AM 57.4210 35.1170 345° North 491 565 32,400 1,080 Climbing FlightAware
10:10AM 57.4970 35.0800 345° North 491 565 33,000 780 Climbing FlightAware
10:10AM 57.5850 35.0360 345° North 492 566 33,400 420 Climbing FlightAware
10:11AM 57.6490 34.9980 342° North 488 562 33,500 180 Climbing FlightAware
10:12AM 57.7290 34.9280 335° Northwest 480 552 33,700 540 Climbing FlightAware
10:12AM 57.8130 34.8300 328° Northwest 467 537 34,300 720 Climbing FlightAware
10:13AM 57.8750 34.7460 324° Northwest 472 543 34,600 600 Climbing FlightAware
10:13AM 57.9370 34.6620 324° Northwest 472 543 35,000 840 Climbing FlightAware
10:14AM 57.9940 34.5830 324° Northwest 466 536 35,600 840 Climbing FlightAware
10:15AM 58.0560 34.4970 324° Northwest 457 526 36,000 300 Climbing FlightAware
10:15AM 58.1150 34.4150 324° Northwest 454 522 36,000  Level FlightAware
10:16AM 58.1740 34.3300 323° Northwest 456 525 36,000  Level FlightAware
10:16AM 58.2320 34.2410 321° Northwest 455 524 36,000  Level FlightAware
10:17AM 58.2900 34.1530 321° Northwest 456 525 36,000  Level FlightAware
10:18AM 58.3450 34.0670 321° Northwest 455 524 36,000  Level FlightAware
10:18AM 58.4250 33.9440 321° Northwest 455 524 36,000  Level FlightAware
10:19AM 58.4850 33.8520 321° Northwest 458 527 36,000  Level FlightAware
10:20AM 58.5450 33.7580 321° Northwest 458 527 36,000  Level FlightAware
10:20AM 58.5960 33.6800 321° Northwest 458 527 36,000  Level FlightAware
10:21AM 58.6460 33.6020 321° Northwest 458 527 36,000  Level FlightAware
10:21AM 58.6980 33.5210 321° Northwest 458 527 36,000  Level FlightAware
10:22AM 58.7480 33.4420 321° Northwest 458 527 36,000  Level FlightAware
10:23AM 58.7980 33.3640 321° Northwest 458 527 36,000  Level FlightAware
10:23AM 58.8520 33.2810 322° Northwest 458 527 36,000  Level FlightAware
10:24AM 58.9030 33.1990 320° Northwest 458 527 36,000  Level FlightAware
10:25AM 58.9540 33.1200 321° Northwest 458 527 36,000  Level FlightAware
10:25AM 58.8850 32.7360 251° West 432 497 36,000  Level FlightAware
10:26AM 58.9060 32.6270 290° West 432 497 36,000  Level FlightAware
10:26AM 58.9290 32.5140 292° West 432 497 36,000  Level FlightAware
10:27AM 58.9590 32.3640 291° West 434 499 36,000  Level FlightAware
10:28AM 58.9910 32.1990 291° West 433 498 36,000  Level FlightAware
10:28AM 59.0120 32.0870 290° West 433 498 36,000  Level FlightAware
10:29AM 59.0660 31.8200 292° West 438 504 36,000  Level FlightAware
10:30AM 59.0960 31.6620 290° West 440 506 36,000  Level FlightAware
10:30AM 59.1190 31.5420 291° West 440 506 36,000  Level FlightAware
10:31AM 59.1460 31.4020 291° West 441 507 36,000  Level FlightAware
10:32AM 59.1700 31.2770 291° West 441 507 36,000  Level FlightAware
10:32AM 59.1830 31.2070 290° West 54 62 36,000  Level FlightAware
10:33AM 59.2100 31.0610 290° West 439 505 36,000  Level FlightAware
10:33AM 59.2420 30.8910 290° West 439 505 36,000  Level FlightAware
10:34AM 59.2670 30.7550 290° West 441 507 36,000  Level FlightAware
10:35AM 59.2910 30.6230 290° West 441 507 36,000  Level FlightAware
10:35AM 59.3120 30.5070 290° West 442 509 36,000  Level FlightAware
10:36AM 59.3390 30.3630 290° West 444 511 36,000  Level FlightAware
10:37AM 59.3840 30.1070 289° West 446 513 36,000  Level FlightAware
10:37AM 59.4090 29.9660 289° West 446 513 36,000  Level FlightAware
10:38AM 59.4300 29.8510 290° West 446 513 36,000  Level FlightAware
10:38AM 59.4550 29.7080 289° West 447 514 36,000  Level FlightAware
10:39AM 59.4780 29.5690 288° West 448 516 36,000  Level FlightAware
10:40AM 59.4990 29.4470 289° West 450 518 36,000  Level FlightAware
10:40AM 59.5240 29.3020 289° West 452 520 36,000  Level FlightAware
10:41AM 59.5470 29.1660 289° West 452 520 36,000  Level FlightAware
10:41AM 59.5740 29.0050 288° West 452 520 36,000  Level FlightAware
10:42AM 59.5980 28.8620 288° West 453 521 36,000  Level FlightAware
10:43AM 59.6170 28.7490 288° West 452 520 36,000  Level FlightAware
10:43AM 59.6400 28.5940 286° West 451 519 36,000  Level FlightAware
10:44AM 59.6610 28.4440 286° West 453 521 36,000  Level FlightAware
10:44AM 59.6790 28.3220 286° West 454 522 36,000  Level FlightAware
10:45AM 59.6990 28.1810 286° West 455 524 36,000  Level FlightAware
10:46AM 59.7180 28.0450 286° West 454 522 36,000  Level FlightAware
10:46AM 59.7390 27.8980 286° West 454 522 36,000  Level FlightAware
10:47AM 59.7600 27.7490 286° West 453 521 36,000  Level FlightAware
10:47AM 59.7770 27.6210 285° West 452 520 36,000  Level FlightAware
10:48AM 59.7950 27.4880 285° West 452 520 36,000  Level FlightAware
10:49AM 59.8180 27.3230 286° West 453 521 36,000  Level FlightAware
10:49AM 59.8350 27.1950 285° West 455 524 36,000  Level FlightAware
10:50AM 59.8530 27.0600 285° West 456 525 36,000  Level FlightAware
10:50AM 59.8730 26.9060 285° West 457 526 36,000  Level FlightAware
10:51AM 59.8910 26.7730 285° West 458 527 36,000  Level FlightAware
10:51AM 59.9090 26.6360 285° West 458 527 36,000  Level FlightAware
10:52AM 59.9310 26.4700 285° West 462 532 36,000  Level FlightAware
10:53AM 59.9520 26.3510 289° West 465 535 36,000  Level FlightAware
10:53AM 59.9840 26.2140 295° West 470 541 36,000  Level FlightAware
10:54AM 60.0270 26.0770 302° West 477 549 36,000  Level FlightAware
10:54AM 60.0740 25.9460 306° West 473 544 36,000  Level FlightAware
10:55AM 60.0950 25.8100 287° West 454 522 36,000  Level FlightAware
10:55AM 60.0920 25.6660 268° West 445 512 36,000  Level FlightAware
10:56AM 60.0840 25.5150 264° West 448 516 36,000  Level FlightAware
10:57AM 60.0800 25.3690 267° West 449 517 36,000  Level FlightAware
10:57AM 60.0750 25.2340 266° West 451 519 36,000  Level FlightAware
10:58AM 60.0700 25.0800 266° West 451 519 36,000  Level FlightAware
10:58AM 60.0640 24.9400 265° West 451 519 36,000  Level FlightAware
10:59AM 60.0600 24.8310 266° West 450 518 36,000  Level FlightAware
10:59AM 60.0530 24.6760 265° West 450 518 36,000  Level FlightAware
11:00AM 60.0470 24.5340 265° West 450 518 36,000  Level FlightAware
11:01AM 60.0400 24.3790 265° West 449 517 36,000  Level FlightAware
11:01AM 60.0350 24.2500 266° West 449 517 36,000  Level FlightAware
11:02AM 60.0280 24.1010 265° West 450 518 36,000  Level FlightAware
11:02AM 60.0210 23.9500 265° West 451 519 36,000  Level FlightAware
11:03AM 60.0140 23.8170 264° West 451 519 36,000  Level FlightAware
11:04AM 60.0070 23.6670 265° West 452 520 36,000  Level FlightAware
11:04AM 60.0000 23.5210 265° West 453 521 36,000  Level FlightAware
11:05AM 59.9920 23.3730 264° West 454 522 36,000  Level FlightAware
11:05AM 59.9850 23.2390 264° West 455 524 36,000  Level FlightAware
11:06AM 59.9760 23.0800 264° West 455 524 36,000  Level FlightAware
11:06AM 59.9680 22.9270 264° West 455 524 36,000  Level FlightAware
11:07AM 59.9610 22.7980 264° West 455 524 36,000  Level FlightAware
11:08AM 59.9520 22.6440 263° West 456 525 36,000  Level FlightAware
11:08AM 59.9460 22.5350 264° West 456 525 36,000  Level FlightAware
11:09AM 59.9340 22.3440 263° West 456 525 36,000  Level FlightAware
11:09AM 59.9270 22.2250 263° West 456 525 36,000  Level FlightAware
11:10AM 59.9180 22.0840 263° West 458 527 36,000  Level FlightAware
11:11AM 59.9090 21.9290 263° West 459 528 36,000  Level FlightAware
11:11AM 59.8990 21.7820 262° West 459 528 36,000  Level FlightAware
11:12AM 59.8910 21.6490 263° West 460 529 36,000  Level FlightAware
11:12AM 59.8810 21.5030 262° West 460 529 36,000  Level FlightAware
11:13AM 59.8700 21.3410 262° West 460 529 36,000  Level FlightAware
11:13AM 59.8600 21.1920 262° West 461 531 36,000  Level FlightAware
11:14AM 59.8500 21.0490 262° West 462 532 36,000  Level FlightAware
11:15AM 59.8390 20.8940 262° West 463 533 36,000  Level FlightAware
11:15AM 59.8290 20.7560 262° West 463 533 36,000  Level FlightAware
11:16AM 59.8180 20.6100 262° West 465 535 36,000  Level FlightAware
11:16AM 59.8060 20.4480 262° West 467 537 36,000  Level FlightAware
11:17AM 59.7960 20.3100 262° West 469 540 36,000  Level FlightAware
11:18AM 59.7840 20.1570 261° West 468 539 36,000  Level FlightAware
11:18AM 59.7760 20.0150 264° West 470 541 36,000  Level FlightAware
11:19AM 59.7800 19.8540 273° West 471 542 36,000  Level FlightAware
11:19AM 59.7840 19.7070 273° West 471 542 36,000  Level FlightAware
11:20AM 59.7870 19.5740 273° West 471 542 36,000  Level FlightAware
11:20AM 59.7910 19.4150 273° West 471 542 36,000  Level FlightAware
11:21AM 59.7940 19.2640 272° West 471 542 36,000  Level FlightAware
11:22AM 59.7960 19.1160 272° West 471 542 36,000  Level FlightAware
11:22AM 59.7990 18.9420 272° West 472 543 36,000  Level FlightAware
11:23AM 59.8010 18.8000 272° West 472 543 36,000  Level FlightAware
11:23AM 59.8040 18.6400 272° West 472 543 36,000  Level FlightAware
11:24AM 59.8060 18.4930 272° West 474 545 36,000  Level FlightAware
11:25AM 59.8080 18.3400 272° West 475 547 36,000  Level FlightAware
11:25AM 59.8100 18.1800 271° West 477 549 36,000  Level FlightAware
11:26AM 59.8110 18.0390 271° West 478 550 36,000  Level FlightAware
11:26AM 59.8120 17.8880 271° West 478 550 36,000  Level FlightAware
11:27AM 59.8140 17.7360 272° West 479 551 36,000  Level FlightAware
11:27AM 59.8150 17.5760 271° West 478 550 36,000  Level FlightAware
11:28AM 59.8160 17.4320 271° West 478 550 36,000  Level FlightAware
11:29AM 59.8160 17.2690 270° West 479 551 36,000  Level FlightAware
11:29AM 59.8170 17.1280 271° West 480 552 36,000  Level FlightAware
11:30AM 59.8170 16.9670 270° West 481 554 36,000  Level FlightAware
11:30AM 59.8170 16.8140 270° West 482 555 36,000  Level FlightAware
11:31AM 59.8170 16.6710 270° West 483 556 36,000  Level FlightAware
11:32AM 59.8170 16.4980 270° West 483 556 36,000  Level FlightAware
11:32AM 59.8170 16.3580 270° West 482 555 36,000  Level FlightAware
11:33AM 59.8160 16.1910 269° West 481 554 36,000  Level FlightAware
11:33AM 59.8150 16.0480 269° West 480 552 36,000  Level FlightAware
11:34AM 59.8140 15.9050 269° West 479 551 36,000  Level FlightAware
11:34AM 59.8320 15.7280 282° West 478 550 36,000  Level FlightAware
11:35AM 59.8490 15.6110 286° West 479 551 36,000  Level FlightAware
11:36AM 59.8700 15.4580 285° West 480 552 36,000  Level FlightAware
11:36AM 59.8940 15.2880 286° West 481 554 36,000  Level FlightAware
11:37AM 59.9120 15.1500 285° West 481 554 36,000  Level FlightAware
11:37AM 59.9330 14.9910 285° West 479 551 36,000  Level FlightAware
11:38AM 59.9520 14.8470 285° West 479 551 36,000  Level FlightAware
11:39AM 59.9710 14.6950 284° West 481 554 36,000  Level FlightAware
11:39AM 59.9900 14.5530 285° West 482 555 36,000  Level FlightAware
11:40AM 60.0070 14.4200 284° West 483 556 36,000  Level FlightAware
11:40AM 60.0290 14.2380 284° West 485 558 36,000  Level FlightAware
11:41AM 60.0480 14.0880 284° West 484 557 36,000  Level FlightAware
11:41AM 60.0670 13.9380 284° West 482 555 36,000  Level FlightAware
11:42AM 60.0850 13.7870 284° West 482 555 36,000  Level FlightAware
11:43AM 60.1030 13.6380 284° West 480 552 36,000  Level FlightAware
11:43AM 60.1210 13.4870 284° West 480 552 36,000  Level FlightAware
11:44AM 60.1430 13.3040 284° West 481 554 36,000  Level FlightAware
11:44AM 60.1610 13.1480 283° West 481 554 36,000  Level FlightAware
11:45AM 60.1770 13.0090 283° West 482 555 36,000  Level FlightAware
11:46AM 60.1970 12.8320 283° West 481 554 36,000  Level FlightAware
11:46AM 60.2120 12.7020 283° West 479 551 36,000  Level FlightAware
11:47AM 60.2300 12.5430 283° West 478 550 36,000  Level FlightAware
11:47AM 60.2450 12.4030 282° West 478 550 36,000  Level FlightAware
11:48AM 60.2620 12.2470 282° West 478 550 36,000  Level FlightAware
11:49AM 60.2800 12.0830 283° West 474 545 36,000  Level FlightAware
11:49AM 60.2950 11.9410 282° West 474 545 36,000  Level FlightAware
11:50AM 60.3110 11.7860 282° West 475 547 36,000  Level FlightAware
11:50AM 60.3270 11.6340 282° West 476 548 36,000  Level FlightAware
11:51AM 60.3430 11.4750 282° West 479 551 36,000  Level FlightAware
11:51AM 60.3580 11.3330 282° West 479 551 36,000  Level FlightAware
11:52AM 60.3740 11.1720 281° West 480 552 36,000  Level FlightAware
11:53AM 60.3880 11.0270 281° West 482 555 36,000  Level FlightAware
11:53AM 60.4040 10.8660 281° West 482 555 36,000  Level FlightAware
11:54AM 60.4180 10.7200 281° West 481 554 36,000  Level FlightAware
11:54AM 60.4330 10.5640 281° West 481 554 36,000  Level FlightAware
11:55AM 60.4480 10.4070 281° West 480 552 36,000  Level FlightAware
11:56AM 60.4620 10.2510 280° West 481 554 36,000  Level FlightAware
11:56AM 60.4760 10.1010 281° West 481 554 36,000  Level FlightAware
11:57AM 60.4900 9.9390 280° West 482 555 36,000  Level FlightAware
11:57AM 60.5020 9.8080 281° West 484 557 36,000  Level FlightAware
11:58AM 60.5170 9.6330 280° West 485 558 36,000  Level FlightAware
11:58AM 60.5320 9.4690 281° West 483 556 36,000  Level FlightAware
11:59AM 60.5440 9.3220 279° West 482 555 36,000  Level FlightAware
12:00PM 60.5560 9.1830 280° West 480 552 36,000  Level FlightAware
12:00PM 60.5700 9.0090 279° West 482 555 36,000  Level FlightAware
12:01PM 60.5830 8.8500 280° West 481 554 36,000  Level FlightAware
12:01PM 60.5960 8.6970 280° West 481 554 36,000  Level FlightAware
12:02PM 60.6080 8.5380 279° West 480 552 36,000  Level FlightAware
12:03PM 60.6200 8.3860 279° West 479 551 36,000  Level FlightAware
12:03PM 60.6320 8.2260 279° West 478 550 36,000  Level FlightAware
12:04PM 60.6440 8.0780 279° West 477 549 36,000  Level FlightAware
12:04PM 60.6570 7.9000 279° West 480 552 36,000  Level FlightAware
12:05PM 60.6680 7.7500 279° West 480 552 36,000  Level FlightAware
12:06PM 60.6790 7.5890 278° West 479 551 36,000  Level FlightAware
12:06PM 60.6900 7.4450 279° West 479 551 36,000  Level FlightAware
12:07PM 60.7010 7.2840 278° West 479 551 36,000  Level FlightAware
12:07PM 60.7120 7.1230 278° West 478 550 36,000  Level FlightAware
12:08PM 60.7220 6.9770 278° West 478 550 36,000  Level FlightAware
12:08PM 60.7320 6.8200 277° West 479 551 36,000  Level FlightAware
12:09PM 60.7420 6.6650 278° West 479 551 36,000  Level FlightAware
12:10PM 60.7520 6.5080 277° West 478 550 36,000  Level FlightAware
12:10PM 60.7610 6.3520 277° West 478 550 36,000  Level FlightAware
12:11PM 60.7710 6.1950 277° West 479 551 36,000  Level FlightAware
12:11PM 60.7790 6.0610 277° West 479 551 36,000  Level FlightAware
12:12PM 60.7900 5.8850 277° West 476 548 36,000  Level FlightAware
12:12PM 60.7990 5.7270 277° West 474 545 36,000  Level FlightAware
12:13PM 60.8060 5.5930 276° West 473 544 36,000  Level FlightAware
12:14PM 60.8160 5.4150 277° West 471 542 36,000  Level FlightAware
12:14PM 60.8250 5.2510 276° West 470 541 36,000  Level FlightAware
12:15PM 60.8340 5.0790 276° West 471 542 36,000  Level FlightAware
12:16PM 60.8420 4.9260 276° West 472 543 36,000  Level FlightAware
12:16PM 60.8480 4.7970 276° West 472 543 36,000  Level FlightAware
12:17PM 60.8580 4.5960 276° West 473 544 36,000  Level FlightAware
12:17PM 60.8640 4.4660 275° West 473 544 36,000  Level FlightAware
12:18PM 60.8740 4.2650 276° West 473 544 36,000  Level FlightAware
12:18PM 60.8790 4.1330 275° West 474 545 36,000  Level FlightAware
12:19PM 60.8880 3.9290 275° West 474 545 36,000  Level FlightAware
12:20PM 60.8950 3.7750 275° West 472 543 36,000  Level FlightAware
12:20PM 60.9000 3.6440 275° West 472 543 36,000  Level FlightAware
12:21PM 60.9080 3.4550 275° West 472 543 36,000  Level FlightAware
12:22PM 60.9130 3.3150 274° West 471 542 36,000  Level FlightAware
12:22PM 60.9210 3.1040 275° West 471 542 36,000  Level FlightAware
12:23PM 60.9260 2.9890 275° West 471 542 36,000  Level FlightAware
12:23PM 60.9320 2.7970 274° West 648 746 36,000  Level FlightAware
12:24PM 60.9380 2.6390 275° West 475 547 36,000  Level FlightAware
12:25PM 60.9430 2.4760 274° West 476 548 36,000  Level FlightAware
12:25PM 60.9480 2.3400 274° West 476 548 36,000  Level FlightAware
12:26PM 60.9520 2.1930 273° West 474 545 36,000  Level FlightAware
12:26PM 60.9570 2.0310 274° West 472 543 36,000  Level FlightAware
12:27PM 60.9610 1.8730 273° West 471 542 36,000  Level FlightAware
12:27PM 60.9660 1.7170 274° West 470 541 36,000  Level FlightAware
12:28PM 60.9700 1.5370 273° West 469 540 36,000  Level FlightAware
12:29PM 60.9730 1.4090 273° West 470 541 36,000  Level FlightAware
12:29PM 60.9770 1.2460 273° West 470 541 36,000  Level FlightAware
12:30PM 60.9810 1.0910 273° West 470 541 36,000  Level FlightAware
12:30PM 60.9840 0.9380 272° West 470 541 36,000  Level FlightAware
12:31PM 60.9880 0.7570 273° West 472 543 36,000  Level FlightAware
12:32PM 60.9900 0.6240 272° West 472 543 36,000  Level FlightAware
12:32PM 60.9930 0.4700 272° West 472 543 36,000  Level FlightAware
12:33PM 60.9960 0.3080 272° West 472 543 36,000  Level FlightAware
12:34PM 61.0070 0.0840 276° West 466 536 36,000  Level FlightAware
12:34PM 61.0250 -0.0900 282° West 462 532 36,000  Level FlightAware
12:35PM 61.0670 -0.2760 295° West 461 531 36,000  Level FlightAware
12:36PM 61.1000 -0.4100 297° West 461 531 36,000  Level FlightAware
12:36PM 61.1440 -0.5770 299° West 458 527 36,000  Level FlightAware
12:37PM 61.1780 -0.7160 297° West 453 521 36,000  Level FlightAware
12:38PM 61.2120 -0.8660 295° West 453 521 36,000  Level FlightAware
12:38PM 61.2490 -1.0110 298° West 450 518 36,000  Level FlightAware
12:39PM 61.2830 -1.1530 297° West 449 517 36,000  Level FlightAware
12:39PM 61.3110 -1.2770 295° West 449 517 36,000  Level FlightAware
12:40PM 61.3480 -1.4250 298° West 345 397 36,000  Level FlightAware
12:41PM 61.3900 -1.6070 296° West 449 517 36,000  Level FlightAware
12:41PM 61.4270 -1.7650 296° West 450 518 36,000  Level FlightAware
12:42PM 61.4570 -1.8920 296° West 294 338 36,000  Level FlightAware
12:43PM 61.4870 -2.0280 295° West 445 512 36,000  Level FlightAware
12:43PM 61.5240 -2.1850 296° West 446 513 36,000  Level FlightAware
12:44PM 61.5560 -2.3250 296° West 440 506 36,000  Level FlightAware
12:44PM 61.5840 -2.4530 295° West 440 506 36,000  Level FlightAware
12:45PM 61.6160 -2.5930 296° West 440 506 36,000  Level FlightAware
12:46PM 61.6450 -2.7220 295° West 438 504 36,000  Level FlightAware
12:46PM 61.6750 -2.8610 295° West 437 503 36,000  Level FlightAware
12:47PM 61.7070 -3.0040 295° West 436 502 36,000  Level FlightAware
12:47PM 61.7350 -3.1350 294° West 434 499 36,000  Level FlightAware
12:48PM 61.7560 -3.2320 295° West 437 503 36,000  Level FlightAware
12:48PM 61.7870 -3.3750 295° West 439 505 36,000  Level FlightAware
12:49PM 61.8190 -3.5220 295° West 441 507 36,000  Level FlightAware
12:50PM 61.8490 -3.6620 294° West 443 510 36,000  Level FlightAware
12:50PM 61.8790 -3.8070 294° West 442 509 36,000  Level FlightAware
12:51PM 61.9130 -3.9690 294° West 441 507 36,000  Level FlightAware
12:51PM 61.9420 -4.1070 294° West 439 505 36,000  Level FlightAware
12:52PM 61.9700 -4.2420 294° West 438 504 36,000  Level FlightAware
12:53PM 62.0030 -4.4020 294° West 437 503 36,000  Level FlightAware
12:53PM 62.0280 -4.5230 294° West 433 498 36,000  Level FlightAware
12:54PM 62.0580 -4.6750 293° West 432 497 36,000  Level FlightAware
12:55PM 62.0960 -4.8660 293° West 431 496 36,000  Level FlightAware
12:55PM 62.1190 -4.9870 292° West 431 496 36,000  Level FlightAware
12:56PM 62.1560 -5.1620 294° West 431 496 36,000  Level FlightAware
12:57PM 62.1800 -5.2980 291° West 431 496 36,000  Level FlightAware
12:57PM 62.2020 -5.4200 291° West 431 496 36,000  Level FlightAware
12:58PM 62.2240 -5.5460 291° West 431 496 36,000  Level FlightAware
12:58PM 62.2460 -5.6680 291° West 431 496 36,000  Level FlightAware
12:59PM 62.2970 -5.8930 296° West 429 494 36,000  Level FlightAware
01:00PM 62.3240 -6.0350 292° West 429 494 36,000  Level FlightAware
01:00PM 62.3470 -6.1590 292° West 429 494 36,000  Level FlightAware
01:01PM 62.3820 -6.3460 292° West 431 496 36,000  Level FlightAware
01:01PM 62.4040 -6.4640 292° West 431 496 36,000  Level FlightAware
01:04PM 62.3977 -7.0375 269° West  Level Estimated
01:04PM 62.5050 -7.0180 269° West 430 495 36,000  Level FlightAware
01:04PM 62.5390 -7.2060 291° West 429 494 36,000  Level FlightAware
01:05PM 62.5660 -7.3610 291° West 425 489 36,000  Level FlightAware
01:06PM 62.5950 -7.5310 290° West 424 488 36,000  Level FlightAware
01:07PM 62.6140 -7.6540 289° West 424 488 36,000  Level FlightAware
01:07PM 62.6340 -7.7780 289° West 424 488 36,000  Level FlightAware
01:08PM 62.6810 -8.0210 293° West 428 493 36,000  Level FlightAware
01:09PM 62.7030 -8.1520 290° West 428 493 36,000  Level FlightAware
01:09PM 62.7240 -8.2800 290° West 428 493 36,000  Level FlightAware
01:10PM 62.7590 -8.4850 291° West 433 498 36,000  Level FlightAware
01:10PM 62.7810 -8.6180 290° West 435 501 36,000  Level FlightAware
01:11PM 62.7980 -8.7200 290° West 436 502 36,000  Level FlightAware
01:11PM 62.8210 -8.8610 290° West 436 502 36,000  Level FlightAware
01:12PM 62.8520 -9.0530 290° West 438 504 36,000  Level FlightAware
01:13PM 62.8760 -9.2060 289° West 439 505 36,000  Level FlightAware
01:13PM 62.9010 -9.3610 290° West 440 506 36,000  Level FlightAware
01:14PM 62.9280 -9.5340 289° West 443 510 36,000  Level FlightAware
01:15PM 62.9520 -9.6880 289° West 444 511 36,000  Level FlightAware
01:15PM 62.9730 -9.8230 289° West 445 512 36,000  Level FlightAware
01:16PM 62.9970 -9.9790 289° West 446 513 36,000  Level FlightAware
01:16PM 63.0180 -10.1230 288° West 447 514 36,000  Level FlightAware
01:17PM 63.0400 -10.2840 287° West 449 517 36,000  Level FlightAware
01:17PM 63.0610 -10.4380 287° West 449 517 36,000  Level FlightAware
01:18PM 63.0770 -10.5620 286° West 449 517 36,000  Level FlightAware
01:19PM 63.0970 -10.7110 287° West 451 519 36,000  Level FlightAware
01:19PM 63.1180 -10.8690 286° West 452 520 36,000  Level FlightAware
01:20PM 63.1350 -10.9930 287° West 452 520 36,000  Level FlightAware
01:20PM 63.1560 -11.1530 286° West 453 521 36,000  Level FlightAware
01:21PM 63.1740 -11.2950 286° West 455 524 36,000  Level FlightAware
01:21PM 63.1950 -11.4580 286° West 456 525 36,000  Level FlightAware
01:22PM 63.2160 -11.6210 286° West 455 524 36,000  Level FlightAware
01:23PM 63.2350 -11.7780 285° West 453 521 36,000  Level FlightAware
01:23PM 63.2530 -11.9190 286° West 452 520 36,000  Level FlightAware
01:24PM 63.2720 -12.0770 285° West 452 520 36,000  Level FlightAware
01:24PM 63.2930 -12.2460 286° West 454 522 36,000  Level FlightAware
01:25PM 63.3100 -12.3870 285° West 454 522 36,000  Level FlightAware
01:25PM 63.3290 -12.5520 284° West 454 522 36,000  Level FlightAware
01:26PM 63.3490 -12.7150 285° West 454 522 36,000  Level FlightAware
01:27PM 63.3680 -12.8850 284° West 455 524 36,000  Level FlightAware
01:27PM 63.3850 -13.0260 285° West 457 526 36,000  Level FlightAware
01:28PM 63.4040 -13.1950 284° West 458 527 36,000  Level FlightAware
01:28PM 63.4210 -13.3430 284° West 459 528 36,000  Level FlightAware
01:29PM 63.4400 -13.5150 284° West 461 531 36,000  Level FlightAware
01:29PM 63.4570 -13.6710 284° West 463 533 36,000  Level FlightAware
01:30PM 63.4750 -13.8360 284° West 463 533 36,000  Level FlightAware
01:31PM 63.4940 -14.0090 284° West 463 533 36,000  Level FlightAware
01:31PM 63.5100 -14.1590 284° West 464 534 36,000  Level FlightAware
01:32PM 63.5260 -14.3130 283° West 465 535 36,000  Level FlightAware
01:32PM 63.5430 -14.4720 284° West 465 535 36,000  Level FlightAware
01:33PM 63.5610 -14.6510 283° West 467 537 36,000  Level FlightAware
01:34PM 63.5780 -14.8140 283° West 468 539 36,000  Level FlightAware
01:34PM 63.5950 -14.9910 282° West 467 537 36,000  Level FlightAware
01:35PM 63.6100 -15.1390 283° West 466 536 36,000  Level FlightAware
01:35PM 63.6270 -15.3150 282° West 468 539 36,000  Level FlightAware
01:36PM 63.6430 -15.4770 283° West 469 540 36,000  Level FlightAware
01:36PM 63.6560 -15.6180 282° West 469 540 36,000  Level FlightAware
01:37PM 63.6750 -15.8120 283° West 469 540 36,000  Level FlightAware
01:38PM 63.6900 -15.9770 282° West 470 541 36,000  Level FlightAware
01:38PM 63.7040 -16.1370 281° West 470 541 36,000  Level FlightAware
01:39PM 63.7200 -16.3110 282° West 469 540 36,000  Level FlightAware
01:39PM 63.7340 -16.4710 281° West 467 537 36,000  Level FlightAware
01:40PM 63.7480 -16.6310 281° West 466 536 36,000  Level FlightAware
01:41PM 63.7640 -16.8130 281° West 466 536 36,000  Level FlightAware
01:41PM 63.7790 -16.9840 281° West 465 535 36,000  Level FlightAware
01:42PM 63.7930 -17.1580 280° West 464 534 36,000  Level FlightAware
01:42PM 63.8060 -17.3130 281° West 465 535 36,000  Level FlightAware
01:43PM 63.8200 -17.4850 281° West 464 534 36,000  Level FlightAware
01:43PM 63.8320 -17.6340 280° West 464 534 36,000  Level FlightAware
01:44PM 63.8470 -17.8180 281° West 466 536 36,000  Level FlightAware
01:45PM 63.8610 -17.9990 280° West 466 536 36,000  Level FlightAware
01:45PM 63.8720 -18.1510 279° West 467 537 36,000  Level FlightAware
01:46PM 63.8850 -18.3170 280° West 466 536 36,000  Level FlightAware
01:46PM 63.8980 -18.5000 279° West 466 536 36,000  Level FlightAware
01:47PM 63.9090 -18.6530 279° West 466 536 36,000  Level FlightAware
01:47PM 63.9200 -18.8080 279° West 465 535 36,000  Level FlightAware
01:48PM 63.9330 -18.9930 279° West 466 536 36,000  Level FlightAware
01:49PM 63.9450 -19.1620 279° West 467 537 36,000  Level FlightAware
01:49PM 63.9580 -19.3470 279° West 469 540 36,000  Level FlightAware
01:50PM 63.9680 -19.5030 278° West 468 539 36,000  Level FlightAware
01:50PM 63.9800 -19.6780 279° West 466 536 36,000  Level FlightAware
01:51PM 63.9910 -19.8550 278° West 467 537 36,000  Level FlightAware
01:52PM 64.0000 -20.0000 278° West 468 539 36,000  Level FlightAware
01:52PM 64.0070 -20.1930 275° West 467 537 36,000  Level FlightAware
01:53PM 64.0120 -20.3570 274° West 467 537 36,000  Level FlightAware
01:53PM 64.0180 -20.5340 275° West 467 537 36,000  Level FlightAware
01:54PM 64.0230 -20.7120 274° West 466 536 36,000  Level FlightAware
01:55PM 64.0270 -20.8650 273° West 464 534 36,000  Level FlightAware
01:55PM 64.0320 -21.0380 274° West 464 534 36,000  Level FlightAware
01:56PM 64.0370 -21.2170 274° West 466 536 36,000  Level FlightAware
01:56PM 64.0420 -21.3930 274° West 467 537 36,000  Level FlightAware
01:57PM 64.0450 -21.5500 273° West 466 536 36,000  Level FlightAware
01:57PM 64.0490 -21.7190 273° West 465 535 36,000  Level FlightAware
01:58PM 64.0530 -21.8940 273° West 465 535 36,000  Level FlightAware
01:59PM 64.0570 -22.0720 273° West 464 534 36,000  Level FlightAware
01:59PM 64.0600 -22.2200 273° West 464 534 36,000  Level FlightAware
02:00PM 64.0630 -22.4110 272° West 464 534 36,000  Level FlightAware
02:00PM 64.0660 -22.5740 272° West 465 535 36,000  Level FlightAware
02:01PM 64.0690 -22.7470 272° West 465 535 36,000  Level FlightAware
02:02PM 64.0710 -22.9050 272° West 464 534 36,000  Level FlightAware
02:02PM 64.0740 -23.0860 272° West 464 534 36,000  Level FlightAware
02:03PM 64.0760 -23.2460 272° West 463 533 36,000  Level FlightAware
02:03PM 64.0780 -23.4180 272° West 464 534 36,000  Level FlightAware
02:04PM 64.0800 -23.6110 271° West 465 535 36,000  Level FlightAware
02:04PM 64.0810 -23.7680 271° West 467 537 36,000  Level FlightAware
02:05PM 64.0820 -23.9420 271° West 468 539 36,000  Level FlightAware
02:06PM 64.0840 -24.1240 272° West 467 537 36,000  Level FlightAware
02:06PM 64.0850 -24.2860 271° West 466 536 36,000  Level FlightAware
02:07PM 64.0850 -24.4710 270° West 465 535 36,000  Level FlightAware
02:07PM 64.0860 -24.6460 271° West 463 533 36,000  Level FlightAware
02:08PM 64.0860 -24.8000 270° West 462 532 36,000  Level FlightAware
02:09PM 64.0860 -24.9680 270° West 461 531 36,000  Level FlightAware
02:09PM 64.0860 -25.2080 270° West 462 532 36,000  Level FlightAware
02:10PM 64.0860 -25.3870 270° West 463 533 36,000  Level FlightAware
02:11PM 64.0850 -25.5480 269° West 463 533 36,000  Level FlightAware
02:11PM 64.0850 -25.7190 270° West 463 533 36,000  Level FlightAware
02:12PM 64.0840 -25.8920 269° West 464 534 36,000  Level FlightAware
02:12PM 64.0820 -26.0670 269° West 464 534 36,000  Level FlightAware
02:13PM 64.0810 -26.2230 269° West 463 533 36,000  Level FlightAware
02:13PM 64.0800 -26.3980 269° West 462 532 36,000  Level FlightAware
02:14PM 64.0780 -26.5810 269° West 462 532 36,000 60 Level FlightAware
02:15PM 64.0760 -26.7460 268° West 461 531 36,100 420 Climbing FlightAware
02:15PM 64.0740 -26.9130 269° West 462 532 36,500 600 Climbing FlightAware
02:16PM 64.0720 -27.0770 268° West 461 531 36,800 420 Climbing FlightAware
02:16PM 64.0690 -27.2640 268° West 465 535 37,000 120 Climbing FlightAware
02:17PM 64.0660 -27.4310 268° West 464 534 37,000  Level FlightAware
02:18PM 64.0630 -27.5950 268° West 463 533 37,000  Level FlightAware
02:18PM 64.0600 -27.7680 268° West 461 531 37,000  Level FlightAware
02:19PM 64.0560 -27.9450 267° West 459 528 37,000  Level FlightAware
02:19PM 64.0530 -28.1000 268° West 457 526 37,000  Level FlightAware
02:20PM 64.0490 -28.2910 267° West 457 526 37,000  Level FlightAware
02:20PM 64.0460 -28.4370 267° West 457 526 37,000  Level FlightAware
02:21PM 64.0410 -28.6170 266° West 458 527 37,000  Level FlightAware
02:22PM 64.0370 -28.7830 267° West 459 528 37,000  Level FlightAware
02:22PM 64.0330 -28.9570 267° West 459 528 37,000  Level FlightAware
02:23PM 64.0280 -29.1120 266° West 460 529 37,000  Level FlightAware
02:23PM 64.0230 -29.2940 266° West 462 532 37,000  Level FlightAware
02:24PM 64.0190 -29.4370 266° West 463 533 37,000  Level FlightAware
02:25PM 64.0130 -29.6270 266° West 464 534 37,000  Level FlightAware
02:25PM 64.0070 -29.7990 266° West 465 535 37,000  Level FlightAware
02:26PM 64.0020 -29.9840 267° West 466 536 37,000  Level FlightAware
02:26PM 64.0050 -30.1320 273° West 467 537 37,000  Level FlightAware
02:27PM 64.0110 -30.3070 275° West 468 539 37,000  Level FlightAware
02:27PM 64.0160 -30.4720 274° West 468 539 37,000  Level FlightAware
02:28PM 64.0220 -30.6600 274° West 468 539 37,000  Level FlightAware
02:29PM 64.0270 -30.8370 274° West 468 539 37,000  Level FlightAware
02:29PM 64.0320 -31.0060 274° West 467 537 37,000  Level FlightAware
02:30PM 64.0360 -31.1580 274° West 467 537 37,000  Level FlightAware
02:30PM 64.0400 -31.3330 273° West 467 537 37,000  Level FlightAware
02:31PM 64.0440 -31.4900 273° West 467 537 37,000  Level FlightAware
02:32PM 64.0490 -31.6800 274° West 469 540 37,000  Level FlightAware
02:32PM 64.0520 -31.8390 273° West 470 541 37,000  Level FlightAware
02:33PM 64.0550 -32.0040 272° West 470 541 37,000  Level FlightAware
02:33PM 64.0570 -32.1560 272° West 470 541 37,000  Level FlightAware
02:34PM 64.0590 -32.3080 272° West 470 541 37,000  Level FlightAware
02:34PM 64.0610 -32.4130 273° West 470 541 37,000  Level FlightAware
02:35PM 64.0630 -32.5700 272° West 470 541 37,000  Level FlightAware
02:36PM 64.0660 -32.7300 273° West 470 541 37,000  Level FlightAware
02:36PM 64.0680 -32.8740 272° West 470 541 37,000  Level FlightAware
02:37PM 64.0700 -33.0260 272° West 470 541 37,000  Level FlightAware
02:38PM 64.0730 -33.2200 272° West 470 541 37,000  Level FlightAware
02:38PM 64.0750 -33.3640 272° West 470 541 37,000  Level FlightAware
02:39PM 64.0770 -33.5070 272° West 470 541 37,000  Level FlightAware
02:39PM 64.0800 -33.6600 273° West 470 541 37,000  Level FlightAware
02:40PM 64.0820 -33.8120 272° West 470 541 37,000  Level FlightAware
02:40PM 64.0840 -33.9550 272° West 470 541 37,000  Level FlightAware
02:41PM 64.0860 -34.1160 272° West 470 541 37,000  Level FlightAware
02:42PM 64.0890 -34.2720 273° West 470 541 37,000  Level FlightAware
02:44PM 63.9753 -34.7340 241° Southwest  Level Estimated
02:45PM 63.9127 -34.9844 240° Southwest  Level Estimated
02:46PM 63.8497 -35.2337 240° Southwest  Level Estimated
02:47PM 63.7862 -35.4819 240° Southwest  Level Estimated
02:48PM 63.7223 -35.7290 240° Southwest  Level Estimated
02:49PM 63.6580 -35.9749 240° Southwest  Level Estimated
02:50PM 63.5933 -36.2197 239° Southwest  Level Estimated
02:51PM 63.5281 -36.4634 239° Southwest  Level Estimated
02:52PM 63.4626 -36.7060 239° Southwest  Level Estimated
02:53PM 63.3966 -36.9475 239° Southwest  Level Estimated
02:54PM 63.3302 -37.1879 238° Southwest  Level Estimated
02:55PM 63.2635 -37.4272 238° Southwest  Level Estimated
02:56PM 63.1963 -37.6653 238° Southwest  Level Estimated
02:57PM 63.1287 -37.9024 238° Southwest  Level Estimated
02:58PM 63.0608 -38.1383 238° Southwest  Level Estimated
02:59PM 62.9924 -38.3732 237° Southwest  Level Estimated
03:00PM 62.9237 -38.6069 237° Southwest  Level Estimated
03:01PM 62.8545 -38.8396 237° Southwest  Level Estimated
03:02PM 62.7850 -39.0711 237° Southwest  Level Estimated
03:03PM 62.7151 -39.3016 237° Southwest  Level Estimated
03:04PM 62.6449 -39.5309 236° Southwest  Level Estimated
03:05PM 62.5742 -39.7592 236° Southwest  Level Estimated
03:06PM 62.5032 -39.9864 236° Southwest  Level Estimated
03:07PM 62.4319 -40.2125 236° Southwest  Level Estimated
03:08PM 62.3601 -40.4375 236° Southwest  Level Estimated
03:09PM 62.2880 -40.6615 235° Southwest  Level Estimated
03:10PM 62.2156 -40.8844 235° Southwest  Level Estimated
03:11PM 62.1428 -41.1062 235° Southwest  Level Estimated
03:12PM 62.0696 -41.3270 235° Southwest  Level Estimated
03:13PM 61.9961 -41.5467 235° Southwest  Level Estimated
03:14PM 61.9222 -41.7653 234° Southwest  Level Estimated
03:15PM 61.8480 -41.9829 234° Southwest  Level Estimated
03:16PM 61.7734 -42.1994 234° Southwest  Level Estimated
03:17PM 61.6986 -42.4148 234° Southwest  Level Estimated
03:18PM 61.6233 -42.6293 234° Southwest  Level Estimated
03:19PM 61.5478 -42.8427 233° Southwest  Level Estimated
03:20PM 61.4719 -43.0550 233° Southwest  Level Estimated
03:21PM 61.3957 -43.2663 233° Southwest  Level Estimated
03:22PM 61.3191 -43.4766 233° Southwest  Level Estimated
03:23PM 61.2422 -43.6858 233° Southwest  Level Estimated
03:24PM 61.1651 -43.8940 233° Southwest  Level Estimated
03:25PM 61.0875 -44.1012 232° Southwest  Level Estimated
03:26PM 61.0097 -44.3074 232° Southwest  Level Estimated
03:27PM 60.9316 -44.5126 232° Southwest  Level Estimated
03:28PM 60.8531 -44.7168 232° Southwest  Level Estimated
03:29PM 60.7744 -44.9199 232° Southwest  Level Estimated
03:30PM 60.6953 -45.1221 231° Southwest  Level Estimated
03:31PM 60.6160 -45.3233 231° Southwest  Level Estimated
03:31PM 63.1010 -49.2600 231° Southwest 480 552 37,000  Level FlightAware
03:32PM 60.5363 -45.5235 231° Southwest  Level Estimated
03:32PM 63.0740 -49.4600 253° West 480 552 37,000  Level FlightAware
03:32PM 63.0540 -49.6110 254° West 480 552 37,000  Level FlightAware
03:33PM 63.0300 -49.7860 253° West 481 554 37,000  Level FlightAware
03:33PM 63.0070 -49.9540 253° West 482 555 37,000  Level FlightAware
03:34PM 62.9840 -50.1090 252° West 481 554 37,000  Level FlightAware
03:35PM 62.9560 -50.2860 251° West 481 554 37,000  Level FlightAware
03:35PM 62.9300 -50.4540 251° West 482 555 37,000  Level FlightAware
03:36PM 62.9070 -50.6030 251° West 482 555 37,000  Level FlightAware
03:36PM 62.8830 -50.7520 251° West 482 555 37,000  Level FlightAware
03:37PM 62.8570 -50.9150 251° West 481 554 37,000  Level FlightAware
03:38PM 62.8280 -51.0920 250° West 480 552 37,000  Level FlightAware
03:38PM 62.8020 -51.2520 250° West 479 551 37,000  Level FlightAware
03:39PM 62.7780 -51.4000 251° West 478 550 37,000  Level FlightAware
03:39PM 62.7510 -51.5640 250° West 478 550 37,000  Level FlightAware
03:40PM 62.7260 -51.7100 250° West 478 550 37,000  Level FlightAware
03:40PM 62.7000 -51.8680 250° West 478 550 37,000  Level FlightAware
03:41PM 62.6750 -52.0150 250° West 477 549 37,000  Level FlightAware
03:42PM 62.6440 -52.1950 250° West 477 549 37,000  Level FlightAware
03:42PM 62.6160 -52.3550 249° West 476 548 37,000  Level FlightAware
03:43PM 62.5930 -52.4890 250° West 476 548 37,000  Level FlightAware
03:43PM 62.5670 -52.6330 249° West 476 548 37,000  Level FlightAware
03:44PM 62.5380 -52.7980 249° West 477 549 37,000  Level FlightAware
03:44PM 62.5100 -52.9580 249° West 476 548 37,000  Level FlightAware
03:45PM 62.4750 -53.1480 248° West 476 548 37,000  Level FlightAware
03:46PM 62.4490 -53.2870 248° West 476 548 37,000  Level FlightAware
03:46PM 62.4230 -53.4220 247° West 476 548 37,000  Level FlightAware
03:47PM 62.3980 -53.5570 248° West 476 548 37,000  Level FlightAware
03:48PM 62.3720 -53.6950 248° West 476 548 37,000  Level FlightAware
03:48PM 62.3460 -53.8340 248° West 476 548 37,000  Level FlightAware
03:49PM 62.2930 -54.1240 249° West 479 551 37,000  Level FlightAware
03:50PM 62.2670 -54.2540 247° West 479 551 37,000  Level FlightAware
03:50PM 62.2410 -54.3880 247° West 479 551 37,000  Level FlightAware
03:51PM 62.2140 -54.5220 247° West 479 551 37,000  Level FlightAware
03:51PM 62.1760 -54.7350 249° West 481 554 37,000  Level FlightAware
03:52PM 62.1420 -54.9050 247° West 481 554 37,000  Level FlightAware
03:53PM 62.0990 -55.1200 247° West 480 552 37,000  Level FlightAware
03:53PM 62.0710 -55.2530 246° West 480 552 37,000  Level FlightAware
03:54PM 62.0350 -55.4390 248° West 478 550 37,000  Level FlightAware
03:55PM 61.9930 -55.6430 246° West 477 549 37,000  Level FlightAware
03:55PM 61.9660 -55.7740 246° West 477 549 37,000  Level FlightAware
03:56PM 61.9380 -55.9050 246° West 477 549 37,000  Level FlightAware
03:57PM 61.9100 -56.0400 246° West 477 549 37,000  Level FlightAware
03:57PM 61.8830 -56.1710 246° West 477 549 37,000  Level FlightAware
03:58PM 61.8540 -56.3090 246° West 477 549 37,000  Level FlightAware
03:58PM 61.8260 -56.4390 246° West 477 549 37,000  Level FlightAware
03:59PM 61.7990 -56.5700 246° West 477 549 37,000  Level FlightAware
04:00PM 61.7700 -56.7080 246° West 477 549 37,000  Level FlightAware
04:00PM 61.7410 -56.8420 245° Southwest 477 549 37,000  Level FlightAware
04:01PM 61.7140 -56.9720 246° West 477 549 37,000  Level FlightAware
04:01PM 61.6880 -57.0950 246° West 477 549 37,000  Level FlightAware
04:02PM 61.6610 -57.2250 246° West 477 549 37,000  Level FlightAware
04:03PM 61.6300 -57.3690 246° West 477 549 37,000  Level FlightAware
04:03PM 61.5667 -57.5500 244° Southwest 230 265 37,000  Level Montreal Center
04:03PM 61.6020 -57.5020 246° West 477 549 37,000  Level FlightAware
04:04PM 61.5167 -57.8000 247° West 450 518 37,000  Level Montreal Center
04:04PM 61.5740 -57.6320 246° West 477 549 37,000  Level FlightAware
04:05PM 61.4667 -58.0333 246° West 470 541 37,000  Level Montreal Center
04:06PM 61.4862 -58.0112 244° Southwest  Level FlightAware Approximate
04:06PM 61.4167 -58.2833 247° West 470 541 37,000  Level Montreal Center
04:07PM 61.4308 -58.2471 244° Southwest  Level FlightAware Approximate
04:07PM 61.3333 -58.5167 233° Southwest 470 541 37,000  Level Montreal Center
04:08PM 61.3750 -58.4822 244° Southwest  Level FlightAware Approximate
04:08PM 61.2833 -58.7500 246° West 470 541 37,000  Level Montreal Center
04:09PM 61.2167 -59.0000 241° Southwest 470 541 37,000  Level Montreal Center
04:10PM 61.1667 -59.2500 248° West 470 541 37,000  Level Montreal Center
04:11PM 61.1167 -59.4833 246° West 470 541 37,000  Level Montreal Center
04:12PM 61.0500 -59.7333 241° Southwest 470 541 37,000  Level Montreal Center
04:13PM 61.0000 -59.9667 246° West 470 541 37,000  Level Montreal Center
04:14PM 60.9167 -60.1833 232° Southwest 470 541 37,000  Level Montreal Center
04:15PM 60.8667 -60.4167 246° West 470 541 37,000  Level Montreal Center
04:16PM 60.7833 -60.6667 236° Southwest 470 541 37,000  Level Montreal Center
04:17PM 60.7167 -60.8667 236° Southwest 470 541 37,000  Level Montreal Center
04:18PM 60.6667 -61.1167 248° West 470 541 37,000  Level Montreal Center
04:19PM 60.5833 -61.3500 234° Southwest 470 541 37,000  Level Montreal Center
04:20PM 60.5167 -61.5500 236° Southwest 470 541 37,000  Level Montreal Center
04:21PM 60.4500 -61.8000 242° Southwest 470 541 37,000  Level Montreal Center
04:22PM 60.3833 -62.0000 236° Southwest 470 541 37,000  Level Montreal Center
04:23PM 60.3167 -62.2333 240° Southwest 470 541 37,000  Level Montreal Center
04:24PM 60.2333 -62.4667 234° Southwest 470 541 37,000  Level Montreal Center
04:25PM 60.1667 -62.7000 240° Southwest 470 541 37,000 120 Level Montreal Center
04:26PM 60.0833 -62.9167 232° Southwest 470 541 37,300 480 Climbing Montreal Center
04:27PM 60.0000 -63.0833 225° Southwest 480 552 38,000 300 Climbing Montreal Center
04:28PM 59.9000 -63.2833 225° Southwest 480 552 38,000  Level Montreal Center
04:29PM 59.8000 -63.4667 223° Southwest 470 541 38,000  Level Montreal Center
04:30PM 59.7000 -63.6333 220° Southwest 470 541 38,000  Level Montreal Center
04:31PM 59.6000 -63.8000 220° Southwest 470 541 38,000  Level Montreal Center
04:32PM 59.5000 -63.9667 220° Southwest 470 541 38,000  Level Montreal Center
04:33PM 59.4167 -64.1333 226° Southwest 470 541 38,000  Level Montreal Center
04:34PM 59.3000 -64.3000 216° Southwest 470 541 38,000  Level Montreal Center
04:35PM 59.2000 -64.4667 221° Southwest 470 541 38,000  Level Montreal Center
04:36PM 59.1000 -64.6667 226° Southwest 480 552 38,000  Level Montreal Center
04:37PM 59.0000 -64.8333 221° Southwest 480 552 38,000  Level Montreal Center
04:38PM 58.8833 -65.0000 216° Southwest 480 552 38,000  Level Montreal Center
04:39PM 58.8000 -65.1500 223° Southwest 470 541 38,000  Level Montreal Center
04:40PM 58.7000 -65.3167 221° Southwest 470 541 38,000  Level Montreal Center
04:41PM 58.6000 -65.4833 221° Southwest 470 541 38,000  Level Montreal Center
04:42PM 58.5000 -65.6333 218° Southwest 470 541 38,000  Level Montreal Center
04:43PM 58.4000 -65.8000 221° Southwest 470 541 38,000  Level Montreal Center
04:44PM 58.2833 -65.9500 214° Southwest 480 552 38,000  Level Montreal Center
04:45PM 58.2000 -66.1333 229° Southwest 480 552 38,000  Level Montreal Center
04:46PM 58.1000 -66.3000 221° Southwest 480 552 38,000  Level Montreal Center
04:47PM 57.9833 -66.4500 214° Southwest 480 552 38,000  Level Montreal Center
04:48PM 57.8833 -66.6167 222° Southwest 480 552 38,000  Level Montreal Center
04:49PM 57.7833 -66.7667 219° Southwest 480 552 38,000  Level Montreal Center
04:50PM 57.6667 -66.9500 220° Southwest 480 552 38,000  Level Montreal Center
04:51PM 57.5833 -67.1000 224° Southwest 480 552 38,000  Level Montreal Center
04:52PM 57.4667 -67.2500 215° Southwest 480 552 38,000  Level Montreal Center
04:53PM 57.3667 -67.4000 219° Southwest 480 552 38,000  Level Montreal Center
04:54PM 57.2500 -67.5500 215° Southwest 480 552 38,000  Level Montreal Center
04:55PM 57.1500 -67.7333 225° Southwest 480 552 38,000  Level Montreal Center
04:56PM 57.0500 -67.8667 216° Southwest 480 552 38,000  Level Montreal Center
04:57PM 56.9500 -68.0167 219° Southwest 480 552 38,000  Level Montreal Center
04:58PM 56.8333 -68.1667 215° Southwest 480 552 38,000  Level Montreal Center
04:59PM 56.7333 -68.3167 219° Southwest 480 552 38,000  Level Montreal Center
05:00PM 56.6167 -68.4833 218° Southwest 480 552 38,000  Level Montreal Center
05:01PM 56.5333 -68.6333 225° Southwest 480 552 38,000  Level Montreal Center
05:02PM 56.4167 -68.7667 212° Southwest 480 552 38,000  Level Montreal Center
05:03PM 56.3000 -68.9167 216° Southwest 470 541 38,000  Level Montreal Center
05:04PM 56.2167 -69.0500 222° Southwest 470 541 38,000  Level Montreal Center
05:05PM 56.1000 -69.2000 216° Southwest 470 541 38,000  Level Montreal Center
05:06PM 56.0000 -69.3667 223° Southwest 470 541 38,000  Level Montreal Center
05:07PM 55.8833 -69.5000 213° Southwest 480 552 38,000  Level Montreal Center
05:08PM 55.7667 -69.6500 216° Southwest 470 541 38,000  Level Montreal Center
05:09PM 55.6833 -69.7833 222° Southwest 470 541 38,000  Level Montreal Center
05:10PM 55.5667 -69.9167 213° Southwest 470 541 38,000  Level Montreal Center
05:11PM 55.4500 -70.0500 213° Southwest 470 541 38,000  Level Montreal Center
05:12PM 55.3667 -70.2167 229° Southwest 470 541 38,000  Level Montreal Center
05:13PM 55.2500 -70.3500 213° Southwest 470 541 38,000  Level Montreal Center
05:14PM 55.1333 -70.4833 213° Southwest 470 541 38,000  Level Montreal Center
05:15PM 55.0333 -70.6167 217° Southwest 470 541 38,000  Level Montreal Center
05:16PM 54.9333 -70.7500 217° Southwest 470 541 38,000  Level Montreal Center
05:17PM 54.8167 -70.8833 213° Southwest 460 529 38,000  Level Montreal Center
05:18PM 54.7167 -71.0000 214° Southwest 470 541 38,000  Level Montreal Center
05:19PM 54.6000 -71.1333 214° Southwest 470 541 38,000  Level Montreal Center
05:20PM 54.5167 -71.2667 223° Southwest 470 541 38,000  Level Montreal Center
05:21PM 54.3833 -71.4167 213° Southwest 470 541 38,000  Level Montreal Center
05:22PM 54.2833 -71.5500 218° Southwest 470 541 38,000  Level Montreal Center
05:23PM 54.1667 -71.6833 214° Southwest 470 541 38,000  Level Montreal Center
05:24PM 54.0833 -71.8000 219° Southwest 470 541 38,000  Level Montreal Center
05:25PM 53.9667 -71.9333 214° Southwest 470 541 38,000  Level Montreal Center
05:26PM 53.8500 -72.0500 211° Southwest 470 541 38,000  Level Montreal Center
05:27PM 53.7500 -72.1833 218° Southwest 470 541 38,000  Level Montreal Center
05:28PM 53.6333 -72.3000 211° Southwest 470 541 38,000  Level Montreal Center
05:29PM 53.5167 -72.4167 211° Southwest 470 541 38,000  Level Montreal Center
05:30PM 53.4333 -72.5500 224° Southwest 470 541 38,000  Level Montreal Center
05:31PM 53.3167 -72.6667 211° Southwest 470 541 38,000  Level Montreal Center
05:32PM 53.2167 -72.8167 222° Southwest 470 541 38,000  Level Montreal Center
05:33PM 53.0833 -72.9333 208° Southwest 470 541 38,000  Level Montreal Center
05:34PM 52.9833 -73.0500 215° Southwest 470 541 38,000  Level Montreal Center
05:35PM 52.8667 -73.1667 211° Southwest 470 541 38,000  Level Montreal Center
05:36PM 52.7667 -73.3000 219° Southwest 470 541 38,000  Level Montreal Center
05:37PM 52.6500 -73.4167 211° Southwest 470 541 38,000  Level Montreal Center
05:38PM 52.5333 -73.5333 211° Southwest 470 541 38,000  Level Montreal Center
05:39PM 52.4333 -73.6500 215° Southwest 470 541 38,000  Level Montreal Center
05:40PM 52.3333 -73.7833 219° Southwest 470 541 38,000  Level Montreal Center
05:41PM 52.2167 -73.9000 212° Southwest 470 541 38,000  Level Montreal Center
05:42PM 52.1000 -74.0167 212° Southwest 470 541 38,000  Level Montreal Center
05:43PM 52.0000 -74.1333 216° Southwest 470 541 38,000  Level Montreal Center
05:44PM 51.8833 -74.2500 212° Southwest 480 552 38,000  Level Montreal Center
05:45PM 51.7667 -74.3833 215° Southwest 470 541 38,000  Level Montreal Center
05:46PM 51.6667 -74.4667 207° Southwest 470 541 38,000  Level Montreal Center
05:47PM 51.5500 -74.6167 219° Southwest 470 541 38,000  Level Montreal Center
05:48PM 51.4333 -74.7167 208° Southwest 470 541 38,000  Level Montreal Center
05:49PM 51.3333 -74.8333 216° Southwest 460 529 38,000  Level Montreal Center
05:50PM 51.2167 -74.9500 212° Southwest 460 529 38,000  Level Montreal Center
05:51PM 51.1000 -75.0500 208° Southwest 470 541 38,000  Level Montreal Center
05:52PM 51.0000 -75.1667 216° Southwest 460 529 38,000  Level Montreal Center
05:53PM 50.8833 -75.2667 208° Southwest 460 529 38,000  Level Montreal Center
05:54PM 50.7833 -75.3833 216° Southwest 470 541 38,000  Level Montreal Center
05:55PM 50.6667 -75.4833 209° Southwest 470 541 38,000  Level Montreal Center
05:56PM 50.5667 -75.6000 217° Southwest 460 529 38,000  Level Montreal Center
05:57PM 50.4500 -75.7000 209° Southwest 460 529 38,000  Level Montreal Center
05:58PM 50.3333 -75.8333 216° Southwest 460 529 38,000  Level Montreal Center
05:59PM 50.2333 -75.9167 208° Southwest 460 529 38,000  Level Montreal Center
06:00PM 50.1167 -76.0500 216° Southwest 460 529 38,000  Level Montreal Center
06:01PM 50.0167 -76.1500 213° Southwest 460 529 38,000  Level Montreal Center
06:02PM 49.8833 -76.2500 206° Southwest 460 529 38,000  Level Montreal Center
06:03PM 49.7833 -76.3500 213° Southwest 460 529 38,000  Level Montreal Center
06:04PM 49.6667 -76.4667 213° Southwest 470 541 38,000  Level Montreal Center
06:05PM 49.5667 -76.5667 213° Southwest 450 518 38,000  Level Montreal Center
06:06PM 49.4333 -76.6667 206° Southwest 480 552 38,000  Level Montreal Center
06:07PM 49.3333 -76.7667 213° Southwest 460 529 38,000  Level Montreal Center
06:08PM 49.2333 -76.8667 213° Southwest 460 529 38,000  Level Montreal Center
06:09PM 49.1167 -76.9667 209° Southwest 460 529 38,000  Level Montreal Center
06:10PM 49.0167 -77.0667 213° Southwest 460 529 38,000  Level Montreal Center
06:11PM 48.9000 -77.1667 209° Southwest 460 529 38,000  Level Montreal Center
06:12PM 48.7833 -77.2667 209° Southwest 460 529 38,000  Level Montreal Center
06:13PM 48.6667 -77.3667 210° Southwest 460 529 38,000  Level Montreal Center
06:15PM 48.5040 -77.5102 211° Southwest  Level FlightAware Approximate
06:15PM 48.4500 -77.5667 211° Southwest 460 529 38,000  Level Montreal Center
06:21PM 47.7770 -78.0540 211° Southwest 465 535 38,000  Level FlightAware
06:21PM 47.7130 -78.0900 201° Southwest 463 533 38,000  Level FlightAware
06:22PM 47.6370 -78.1350 202° Southwest 463 533 38,000  Level FlightAware
06:22PM 47.5740 -78.1710 201° Southwest 462 532 38,000  Level FlightAware
06:23PM 47.5010 -78.2120 201° Southwest 462 532 38,000  Level FlightAware
06:24PM 47.4270 -78.2550 201° Southwest 463 533 38,000  Level FlightAware
06:24PM 47.3640 -78.2910 201° Southwest 463 533 38,000  Level FlightAware
06:25PM 47.2900 -78.3330 201° Southwest 463 533 38,000  Level FlightAware
06:25PM 47.2180 -78.3740 201° Southwest 464 534 38,000  Level FlightAware
06:26PM 47.1480 -78.4140 201° Southwest 463 533 38,000  Level FlightAware
06:26PM 47.0840 -78.4500 201° Southwest 460 529 38,000  Level FlightAware
06:27PM 47.0120 -78.4900 201° Southwest 459 528 38,000  Level FlightAware
06:28PM 46.9400 -78.5310 201° Southwest 459 528 38,000  Level FlightAware
06:28PM 46.8770 -78.5660 201° Southwest 460 529 38,000  Level FlightAware
06:29PM 46.8010 -78.6080 201° Southwest 461 531 38,000  Level FlightAware
06:29PM 46.7300 -78.6480 201° Southwest 462 532 38,000  Level FlightAware
06:30PM 46.6660 -78.6830 201° Southwest 461 531 38,000  Level FlightAware
06:31PM 46.5960 -78.7220 201° Southwest 457 526 38,000  Level FlightAware
06:31PM 46.5270 -78.7600 201° Southwest 456 525 38,000  Level FlightAware
06:32PM 46.4530 -78.8010 201° Southwest 456 525 38,000  Level FlightAware
06:32PM 46.3890 -78.8360 201° Southwest 458 527 38,000  Level FlightAware
06:33PM 46.3180 -78.8750 201° Southwest 458 527 38,000  Level FlightAware
06:34PM 46.2470 -78.9140 201° Southwest 457 526 38,000  Level FlightAware
06:34PM 46.1830 -78.9480 200° South 456 525 38,000  Level FlightAware
06:35PM 46.1130 -78.9870 201° Southwest 457 526 38,000  Level FlightAware
06:35PM 46.0410 -79.0250 200° South 458 527 38,000  Level FlightAware
06:36PM 45.9770 -79.0600 201° Southwest 458 527 38,000  Level FlightAware
06:36PM 45.9060 -79.0980 200° South 457 526 38,000  Level FlightAware
06:37PM 45.8320 -79.1380 201° Southwest 456 525 38,000  Level FlightAware
06:38PM 45.7610 -79.1760 200° South 457 526 38,000  Level FlightAware
06:38PM 45.6980 -79.2100 201° Southwest 457 526 38,000  Level FlightAware
06:39PM 45.6270 -79.2480 201° Southwest 459 528 38,000  Level FlightAware
06:39PM 45.5620 -79.2820 200° South 458 527 38,000  Level FlightAware
06:40PM 45.4820 -79.3250 201° Southwest 457 526 38,000  Level FlightAware
06:40PM 45.4220 -79.3560 200° South 457 526 38,000  Level FlightAware
06:41PM 45.3480 -79.3960 201° Southwest 458 527 38,000  Level FlightAware
06:42PM 45.2770 -79.4330 200° South 457 526 38,000  Level FlightAware
06:42PM 45.2280 -79.4590 200° South 456 525 38,000  Level FlightAware
06:43PM 45.1410 -79.5040 200° South 452 520 38,000  Level FlightAware
06:43PM 45.0780 -79.5370 200° South 450 518 38,000  Level FlightAware
06:44PM 44.9930 -79.5810 200° South 449 517 38,000  Level FlightAware
06:45PM 44.9350 -79.6120 201° Southwest 449 517 38,000  Level FlightAware
06:45PM 44.8650 -79.6480 200° South 447 514 38,000  Level FlightAware
06:46PM 44.7980 -79.6830 200° South 446 513 38,000  Level FlightAware
06:46PM 44.7370 -79.7140 200° South 445 512 38,000  Level FlightAware
06:47PM 44.6610 -79.7530 200° South 442 509 38,000  Level FlightAware
06:48PM 44.5990 -79.7860 201° Southwest 439 505 38,000  Level FlightAware
06:48PM 44.5270 -79.8420 209° Southwest 432 497 38,000  Level FlightAware
06:49PM 44.4740 -79.8900 213° Southwest 431 496 38,000  Level FlightAware
06:49PM 44.4170 -79.9420 213° Southwest 432 497 38,000  Level FlightAware
06:50PM 44.3590 -79.9950 213° Southwest 432 497 38,000  Level FlightAware
06:51PM 44.2900 -80.0560 212° Southwest 432 497 38,000  Level FlightAware
06:51PM 44.2410 -80.1000 213° Southwest 432 497 38,000  Level FlightAware
06:52PM 44.1810 -80.1540 213° Southwest 431 496 38,000  Level FlightAware
06:52PM 44.1250 -80.2030 212° Southwest 430 495 38,000  Level FlightAware
06:53PM 44.0660 -80.2560 213° Southwest 430 495 38,000  Level FlightAware
06:53PM 44.0060 -80.3090 212° Southwest 430 495 38,000  Level FlightAware
06:54PM 43.9460 -80.3620 212° Southwest 429 494 38,000  Level FlightAware
06:55PM 43.8900 -80.4120 213° Southwest 428 493 38,000  Level FlightAware
06:55PM 43.8310 -80.4630 212° Southwest 428 493 38,000  Level FlightAware
06:56PM 43.7720 -80.5150 212° Southwest 428 493 38,000  Level FlightAware
06:56PM 43.7030 -80.5750 212° Southwest 429 494 38,000  Level FlightAware
06:57PM 43.6540 -80.6180 212° Southwest 429 494 38,000  Level FlightAware
06:57PM 43.5980 -80.6670 212° Southwest 426 490 38,000  Level FlightAware
06:58PM 43.5300 -80.7260 212° Southwest 423 487 38,000  Level FlightAware
06:59PM 43.4830 -80.7670 212° Southwest 424 488 38,000  Level FlightAware
06:59PM 43.4210 -80.8200 212° Southwest 425 489 38,000  Level FlightAware
07:00PM 43.3620 -80.8710 212° Southwest 427 491 38,000  Level FlightAware
07:00PM 43.3050 -80.9210 213° Southwest 425 489 38,000  Level FlightAware
07:01PM 43.2470 -80.9700 212° Southwest 423 487 38,000  Level FlightAware
07:02PM 43.1900 -81.0190 212° Southwest 420 483 38,000  Level FlightAware
07:02PM 43.1330 -81.0680 212° Southwest 417 480 38,000  Level FlightAware
07:03PM 43.0730 -81.1190 212° Southwest 415 478 38,000  Level FlightAware
07:03PM 43.0060 -81.1680 208° Southwest 421 484 38,000  Level FlightAware
07:04PM 42.9530 -81.2010 205° Southwest 419 482 38,000  Level FlightAware
07:04PM 42.8930 -81.2390 205° Southwest 420 483 38,000  Level FlightAware
07:05PM 42.8200 -81.2840 204° Southwest 420 483 38,000  Level FlightAware
07:06PM 42.7730 -81.3120 204° Southwest 420 483 38,000  Level FlightAware
07:06PM 42.7050 -81.3540 204° Southwest 420 483 38,000  Level FlightAware
07:07PM 42.6460 -81.3900 204° Southwest 421 484 38,000  Level FlightAware
07:07PM 42.5880 -81.4260 205° Southwest 422 486 38,000  Level FlightAware
07:08PM 42.5150 -81.4700 204° Southwest 421 484 38,000  Level FlightAware
07:09PM 42.4580 -81.5050 204° Southwest 422 486 38,000  Level FlightAware
07:09PM 42.3850 -81.5490 204° Southwest 426 490 38,000  Level FlightAware
07:10PM 42.3340 -81.5800 204° Southwest 425 489 38,000  Level FlightAware
07:10PM 42.2650 -81.6220 204° Southwest 425 489 38,000  Level FlightAware
07:11PM 42.2070 -81.6570 204° Southwest 425 489 38,000  Level FlightAware
07:12PM 42.1390 -81.6980 204° Southwest 424 488 38,000  Level FlightAware
07:12PM 42.0740 -81.7370 204° Southwest 421 484 38,000  Level FlightAware
07:13PM 42.0090 -81.7760 204° Southwest 419 482 38,000  Level FlightAware
07:13PM 41.9480 -81.8130 204° Southwest 417 480 38,000  Level FlightAware
07:14PM 41.8870 -81.8490 204° Southwest 414 476 38,000  Level FlightAware
07:14PM 41.8240 -81.8870 204° Southwest 413 475 38,000  Level FlightAware
07:15PM 41.7670 -81.9200 203° Southwest 414 476 38,000  Level FlightAware
07:16PM 41.7040 -81.9580 204° Southwest 412 474 38,000  Level FlightAware
07:16PM 41.6440 -81.9930 204° Southwest 410 472 38,000  Level FlightAware
07:17PM 41.5810 -82.0310 204° Southwest 405 466 38,000  Level FlightAware
07:17PM 41.5220 -82.0650 203° Southwest 404 465 38,000  Level FlightAware
07:18PM 41.4640 -82.1000 204° Southwest 405 466 38,000  Level FlightAware
07:19PM 41.3990 -82.1380 204° Southwest 406 467 38,000  Level FlightAware
07:19PM 41.3410 -82.1670 201° Southwest 415 478 38,000  Level FlightAware
07:20PM 41.2770 -82.1900 195° South 421 484 38,000  Level FlightAware
07:20PM 41.2060 -82.2160 195° South 423 487 38,000  Level FlightAware
07:21PM 41.1440 -82.2390 196° South 425 489 38,000  Level FlightAware
07:21PM 41.0760 -82.2630 195° South 426 490 38,000  Level FlightAware
07:22PM 41.0070 -82.2880 195° South 427 491 38,000  Level FlightAware
07:23PM 40.9470 -82.3090 195° South 426 490 38,000  Level FlightAware
07:23PM 40.8760 -82.3340 195° South 426 490 38,000  Level FlightAware
07:24PM 40.8130 -82.3560 195° South 428 493 38,000  Level FlightAware
07:24PM 40.7400 -82.3820 195° South 429 494 38,000  Level FlightAware
07:25PM 40.6780 -82.4040 195° South 430 495 38,000  Level FlightAware
07:26PM 40.6020 -82.4310 195° South 429 494 38,000  Level FlightAware
07:26PM 40.5410 -82.4520 195° South 428 493 38,000  Level FlightAware
07:27PM 40.4750 -82.4750 195° South 427 491 38,000  Level FlightAware
07:27PM 40.4100 -82.4980 195° South 426 490 38,000  Level FlightAware
07:28PM 40.3350 -82.5240 195° South 424 488 38,000  Level FlightAware
07:28PM 40.2780 -82.5440 195° South 423 487 38,000  Level FlightAware
07:29PM 40.2070 -82.5690 195° South 424 488 38,000  Level FlightAware
07:30PM 40.1360 -82.5870 191° South 435 501 38,000  Level FlightAware
07:30PM 40.0700 -82.5930 184° South 443 510 38,000  Level FlightAware
07:31PM 39.9970 -82.5980 183° South 444 511 38,000  Level FlightAware
07:31PM 39.9220 -82.6040 184° South 446 513 38,000  Level FlightAware
07:32PM 39.8520 -82.6090 183° South 446 513 38,000  Level FlightAware
07:33PM 39.7790 -82.6140 183° South 447 514 38,000  Level FlightAware
07:33PM 39.7090 -82.6180 183° South 448 516 38,000  Level FlightAware
07:34PM 39.6380 -82.6230 183° South 445 512 38,000  Level FlightAware
07:34PM 39.5630 -82.6280 183° South 444 511 38,000  Level FlightAware
07:35PM 39.4990 -82.6330 183° South 444 511 38,000  Level FlightAware
07:35PM 39.4190 -82.6380 183° South 445 512 38,000  Level FlightAware
07:36PM 39.3460 -82.6430 183° South 445 512 38,000  Level FlightAware
07:37PM 39.2730 -82.6480 183° South 444 511 38,000  Level FlightAware
07:37PM 39.2030 -82.6520 183° South 445 512 38,000  Level FlightAware
07:38PM 39.1410 -82.6560 183° South 446 513 38,000 360 Level FlightAware
07:38PM 39.0540 -82.6620 183° South 447 514 38,500 780 Climbing FlightAware
07:39PM 38.9910 -82.6660 183° South 445 512 39,000 420 Climbing FlightAware
07:40PM 38.9180 -82.6710 183° South 450 518 39,000  Level FlightAware
07:40PM 38.8430 -82.6760 183° South 449 517 39,000  Level FlightAware
07:41PM 38.7660 -82.6810 183° South 445 512 39,000  Level FlightAware
07:41PM 38.7000 -82.6850 183° South 443 510 39,000  Level FlightAware
07:42PM 38.6270 -82.6900 183° South 443 510 39,000  Level FlightAware
07:42PM 38.5580 -82.6950 183° South 442 509 39,000  Level FlightAware
07:43PM 38.4910 -82.6990 183° South 443 510 39,000  Level FlightAware
07:44PM 38.4190 -82.7040 183° South 444 511 39,000  Level FlightAware
07:44PM 38.3330 -82.7090 183° South 444 511 39,000  Level FlightAware
07:45PM 38.2690 -82.7130 183° South 445 512 39,000  Level FlightAware
07:45PM 38.2402 -82.7153 184° South 447 514 39,000  Level FlightAware ADS-B
07:46PM 38.1200 -82.7230 183° South 453 521 39,000  Level FlightAware
07:47PM 38.0530 -82.7270 183° South 454 522 39,000  Level FlightAware
07:47PM 37.9743 -82.7325 183° South 456 525 39,000  Level FlightAware ADS-B
07:48PM 37.8957 -82.7376 183° South 457 526 39,000  Level FlightAware ADS-B
07:48PM 37.8200 -82.7420 183° South 457 526 39,000  Level FlightAware
07:48PM 37.8015 -82.7436 184° South 457 526 39,000  Level FlightAware ADS-B
07:49PM 37.6774 -82.7681 189° South 441 507 39,000  Level FlightAware ADS-B
07:50PM 37.6120 -82.7970 199° South 430 495 39,000  Level FlightAware
07:50PM 37.5851 -82.8123 204° Southwest 427 491 39,000  Level FlightAware ADS-B
07:51PM 37.5308 -82.8481 208° Southwest 423 487 39,000  Level FlightAware ADS-B
07:51PM 37.4789 -82.8826 208° Southwest 426 490 39,000  Level FlightAware ADS-B
07:52PM 37.4215 -82.9204 208° Southwest 427 491 39,000  Level FlightAware ADS-B
07:52PM 37.3661 -82.9568 208° Southwest 429 494 39,000  Level FlightAware ADS-B
07:53PM 37.3149 -82.9904 208° Southwest 431 496 39,000  Level FlightAware ADS-B
07:53PM 37.2603 -83.0261 207° Southwest 432 497 39,000  Level FlightAware ADS-B
07:54PM 37.1987 -83.0662 207° Southwest 432 497 39,000  Level FlightAware ADS-B
07:55PM 37.1424 -83.1030 208° Southwest 433 498 39,000  Level FlightAware ADS-B
07:55PM 37.0877 -83.1386 207° Southwest 434 499 39,000  Level FlightAware ADS-B
07:56PM 37.0327 -83.1744 207° Southwest 435 501 39,000  Level FlightAware ADS-B
07:56PM 36.9762 -83.2110 207° Southwest 437 503 39,000  Level FlightAware ADS-B
07:57PM 36.9223 -83.2459 207° Southwest 436 502 39,000  Level FlightAware ADS-B
07:57PM 36.8670 -83.2817 207° Southwest 435 501 39,000  Level FlightAware ADS-B
07:58PM 36.8098 -83.3187 207° Southwest 436 502 39,000  Level FlightAware ADS-B
07:58PM 36.7571 -83.3526 207° Southwest 435 501 39,000  Level FlightAware ADS-B
07:59PM 36.6953 -83.3924 207° Southwest 436 502 39,000  Level FlightAware ADS-B
07:59PM 36.6426 -83.4263 207° Southwest 436 502 39,000  Level FlightAware ADS-B
08:00PM 36.5857 -83.4628 207° Southwest 437 503 39,000  Level FlightAware ADS-B
08:00PM 36.5309 -83.4978 207° Southwest 437 503 39,000  Level FlightAware ADS-B
08:01PM 36.4747 -83.5338 207° Southwest 437 503 39,000  Level FlightAware ADS-B
08:01PM 36.4191 -83.5693 207° Southwest 438 504 39,000  Level FlightAware ADS-B
08:02PM 36.3635 -83.6048 207° Southwest 442 509 39,000  Level FlightAware ADS-B
08:02PM 36.3091 -83.6395 207° Southwest 444 511 39,000  Level FlightAware ADS-B
08:03PM 36.2517 -83.6759 207° Southwest 445 512 39,000  Level FlightAware ADS-B
08:03PM 36.1867 -83.7171 207° Southwest 446 513 39,000  Level FlightAware ADS-B
08:04PM 36.1296 -83.7533 207° Southwest 449 517 39,000  Level FlightAware ADS-B
08:04PM 36.0740 -83.7883 207° Southwest 449 517 39,000  Level FlightAware ADS-B
08:05PM 36.0170 -83.8243 207° Southwest 447 514 39,000  Level FlightAware ADS-B
08:05PM 35.9591 -83.8603 207° Southwest 446 513 39,000  Level FlightAware ADS-B
08:06PM 35.9051 -83.8862 201° Southwest 456 525 39,000  Level FlightAware ADS-B
08:06PM 35.8430 -83.9076 196° South 463 533 39,000  Level FlightAware ADS-B
08:07PM 35.7794 -83.9233 191° South 467 537 39,000  Level FlightAware ADS-B
08:07PM 35.7060 -83.9426 192° South 468 539 39,000  Level FlightAware ADS-B
08:08PM 35.6416 -83.9589 192° South 470 541 39,000  Level FlightAware ADS-B
08:09PM 35.5433 -83.9827 191° South 469 540 39,000  Level FlightAware ADS-B
08:09PM 35.4689 -84.0007 191° South 468 539 39,000  Level FlightAware ADS-B
08:10PM 35.4037 -84.0164 191° South 468 539 39,000  Level FlightAware ADS-B
08:10PM 35.3381 -84.0322 191° South 467 537 39,000  Level FlightAware ADS-B
08:11PM 35.2749 -84.0475 191° South 466 536 39,000  Level FlightAware ADS-B
08:11PM 35.2085 -84.0634 191° South 467 537 39,000  Level FlightAware ADS-B
08:12PM 35.1407 -84.0797 191° South 468 539 39,000  Level FlightAware ADS-B
08:13PM 35.0647 -84.0979 191° South 470 541 39,000  Level FlightAware ADS-B
08:13PM 34.9975 -84.1140 191° South 470 541 39,000  Level FlightAware ADS-B
08:14PM 34.9300 -84.1300 191° South 471 542 39,000  Level FlightAware ADS-B
08:14PM 34.8544 -84.1480 191° South 469 540 39,000  Level FlightAware ADS-B
08:15PM 34.7864 -84.1642 191° South 468 539 39,000  Level FlightAware ADS-B
08:15PM 34.7245 -84.1788 191° South 464 534 39,000  Level FlightAware ADS-B
08:16PM 34.6575 -84.1947 191° South 462 532 39,000  Level FlightAware ADS-B
08:17PM 34.5390 -84.2230 191° South 460 529 39,000  Level FlightAware
08:17PM 34.5142 -84.2285 190° South 462 532 39,000  Level FlightAware ADS-B
08:17PM 34.4506 -84.2436 191° South 463 533 39,000  Level FlightAware ADS-B
08:18PM 34.3890 -84.2580 191° South 464 534 39,000  Level FlightAware ADS-B
08:18PM 34.3233 -84.2735 191° South 462 532 39,000  Level FlightAware ADS-B
08:19PM 34.2595 -84.2885 191° South 464 534 39,000  Level FlightAware ADS-B
08:19PM 34.1908 -84.3046 191° South 463 533 39,000  Level FlightAware ADS-B
08:20PM 34.0860 -84.3290 191° South 461 531 39,000  Level FlightAware
08:21PM 34.0205 -84.3443 191° South 462 532 39,000  Level FlightAware ADS-B
08:21PM 33.9350 -84.3640 191° South 462 532 39,000  Level FlightAware
08:22PM 33.9143 -84.3691 192° South 462 532 39,000  Level FlightAware ADS-B
08:23PM 33.7986 -84.3959 191° South 462 532 39,000  Level FlightAware ADS-B
08:23PM 33.7285 -84.4122 191° South 464 534 39,000  Level FlightAware ADS-B
08:24PM 33.6638 -84.4264 190° South 467 537 39,000  Level FlightAware ADS-B
08:24PM 33.6323 -84.4306 186° South 469 540 39,000  Level FlightAware ADS-B
08:24PM 33.5603 -84.4330 182° South 470 541 39,000  Level FlightAware ADS-B
08:25PM 33.5294 -84.4322 179° South 469 540 39,000  Level FlightAware ADS-B
08:25PM 33.4616 -84.4313 179° South 471 542 39,000  Level FlightAware ADS-B
08:26PM 33.3888 -84.4302 179° South 474 545 39,000  Level FlightAware ADS-B
08:26PM 33.3034 -84.4285 179° South 473 544 39,000  Level FlightAware ADS-B
08:27PM 33.1939 -84.4263 179° South 471 542 39,000  Level FlightAware ADS-B
08:28PM 33.1092 -84.4245 179° South 474 545 39,000  Level FlightAware ADS-B
08:28PM 33.0379 -84.4231 179° South 476 548 39,000  Level FlightAware ADS-B
08:29PM 32.9490 -84.4210 179° South 474 545 39,000  Level FlightAware
08:30PM 32.8710 -84.4200 179° South 473 544 39,000  Level FlightAware
08:30PM 32.8000 -84.4180 179° South 473 544 39,000  Level FlightAware
08:31PM 32.7210 -84.4170 179° South 475 547 39,000  Level FlightAware
08:31PM 32.6420 -84.4150 179° South 476 548 39,000  Level FlightAware
08:32PM 32.5750 -84.4140 179° South 478 550 39,000  Level FlightAware
08:32PM 32.4940 -84.4120 179° South 482 555 39,000  Level FlightAware
08:33PM 32.4110 -84.4100 179° South 485 558 39,000  Level FlightAware
08:34PM 32.3280 -84.4090 179° South 486 559 39,000  Level FlightAware
08:34PM 32.2570 -84.4070 179° South 483 556 39,000  Level FlightAware
08:35PM 32.1770 -84.4060 179° South 480 552 39,000  Level FlightAware
08:35PM 32.1010 -84.4040 179° South 483 556 39,000  Level FlightAware
08:36PM 31.9920 -84.4010 179° South 482 555 39,000  Level FlightAware
08:37PM 31.8910 -84.4000 180° South 484 557 39,000  Level FlightAware
08:38PM 31.7650 -84.3980 179° South 485 558 39,000  Level FlightAware
08:39PM 31.6960 -84.3960 179° South 485 558 39,000  Level FlightAware
08:39PM 31.6280 -84.3950 179° South 485 558 39,000  Level FlightAware
08:40PM 31.5590 -84.3930 179° South 485 558 39,000  Level FlightAware
08:40PM 31.4890 -84.3920 179° South 485 558 39,000  Level FlightAware
08:41PM 31.4180 -84.3900 179° South 485 558 39,000  Level FlightAware
08:42PM 31.3470 -84.3890 179° South 485 558 39,000  Level FlightAware
08:42PM 31.2770 -84.3880 179° South 485 558 39,000  Level FlightAware
08:43PM 31.1020 -84.3850 179° South 487 560 39,000  Level FlightAware
08:44PM 31.0000 -84.3830 179° South 486 559 39,000  Level FlightAware
08:44PM 30.9320 -84.3810 179° South 486 559 39,000  Level FlightAware
08:45PM 30.8630 -84.3800 179° South 486 559 39,000  Level FlightAware
08:45PM 30.7920 -84.3780 179° South 486 559 39,000  Level FlightAware
08:46PM 30.6660 -84.3730 178° South 487 560 39,000  Level FlightAware
08:47PM 30.5870 -84.3580 171° South 488 562 39,000  Level FlightAware
08:47PM 30.4910 -84.3250 163° South 487 560 39,000  Level FlightAware
08:48PM 30.4110 -84.2780 153° Southeast 481 554 39,000  Level FlightAware
08:49PM 30.3450 -84.2350 151° Southeast 480 552 39,000  Level FlightAware
08:49PM 30.2950 -84.2030 151° Southeast 477 549 39,000  Level FlightAware
08:50PM 30.2400 -84.1670 151° Southeast 475 547 39,000  Level FlightAware
08:50PM 30.1590 -84.1140 150° Southeast 475 547 39,000  Level FlightAware
08:51PM 30.0950 -84.0730 151° Southeast 474 545 39,000  Level FlightAware
08:51PM 30.0250 -84.0270 150° Southeast 474 545 39,000  Level FlightAware
08:52PM 29.9570 -83.9830 151° Southeast 467 537 39,000  Level FlightAware
08:53PM 29.8930 -83.9410 150° Southeast 466 536 39,000  Level FlightAware
08:53PM 29.8210 -83.8950 151° Southeast 467 537 39,000  Level FlightAware
08:54PM 29.7540 -83.8510 150° Southeast 476 548 39,000  Level FlightAware
08:54PM 29.6870 -83.8080 151° Southeast 480 552 39,000  Level FlightAware
08:55PM 29.6200 -83.7650 151° Southeast 481 554 39,000  Level FlightAware
08:56PM 29.5430 -83.7150 151° Southeast 481 554 39,000  Level FlightAware
08:56PM 29.4740 -83.6710 151° Southeast 481 554 39,000  Level FlightAware
08:57PM 29.3960 -83.6220 151° Southeast 481 554 39,000  Level FlightAware
08:57PM 29.3370 -83.5840 151° Southeast 480 552 39,000  Level FlightAware
08:58PM 29.2700 -83.5410 151° Southeast 479 551 39,000  Level FlightAware
08:58PM 29.2040 -83.4990 151° Southeast 476 548 39,000  Level FlightAware
08:59PM 29.1240 -83.4480 151° Southeast 476 548 39,000  Level FlightAware
09:00PM 29.0660 -83.4110 151° Southeast 476 548 39,000  Level FlightAware
09:00PM 28.9890 -83.3620 151° Southeast 467 537 39,000  Level FlightAware
09:01PM 28.9320 -83.3260 151° Southeast 465 535 39,000  Level FlightAware
09:01PM 28.8570 -83.2790 151° Southeast 463 533 39,000  Level FlightAware
09:02PM 28.8000 -83.2420 150° Southeast 462 532 39,000  Level FlightAware
09:03PM 28.7320 -83.1990 151° Southeast 462 532 39,000  Level FlightAware
09:03PM 28.6650 -83.1580 152° Southeast 463 533 39,000  Level FlightAware
09:04PM 28.5910 -83.1100 150° Southeast 463 533 39,000  Level FlightAware
09:04PM 28.5350 -83.0750 151° Southeast 462 532 39,000  Level FlightAware
09:05PM 28.4620 -83.0470 161° South 465 535 39,000  Level FlightAware
09:05PM 28.3870 -83.0290 168° South 472 543 39,000  Level FlightAware
09:06PM 28.3090 -83.0110 169° South 463 533 39,000  Level FlightAware
09:07PM 28.2360 -82.9940 168° South 462 532 39,000  Level FlightAware
09:07PM 28.1600 -82.9760 168° South 463 533 39,000  Level FlightAware
09:08PM 28.0780 -82.9560 168° South 464 534 39,000  Level FlightAware
09:08PM 28.0110 -82.9390 167° South 461 531 39,000  Level FlightAware
09:09PM 27.9390 -82.9210 168° South 458 527 39,000  Level FlightAware
09:10PM 27.8540 -82.8950 165° South 455 524 39,000  Level FlightAware
09:10PM 27.7930 -82.8740 163° South 456 525 39,000  Level FlightAware
09:11PM 27.7250 -82.8440 159° South 455 524 39,000  Level FlightAware
09:11PM 27.6560 -82.8130 158° South 451 519 39,000  Level FlightAware
09:12PM 27.5830 -82.7880 163° South 455 524 39,000  Level FlightAware
09:12PM 27.5090 -82.7810 175° South 453 521 39,000  Level FlightAware
09:13PM 27.4370 -82.7750 176° South 450 518 39,000  Level FlightAware
09:14PM 27.3550 -82.7690 176° South 438 504 39,000  Level FlightAware
09:14PM 27.2910 -82.7640 176° South 438 504 39,000  Level FlightAware
09:15PM 27.2200 -82.7580 176° South 439 505 39,000  Level FlightAware
09:15PM 27.1490 -82.7530 176° South 449 517 39,000  Level FlightAware
09:16PM 27.0740 -82.7470 176° South 450 518 39,000  Level FlightAware
09:17PM 26.9940 -82.7410 176° South 452 520 39,000  Level FlightAware
09:17PM 26.9280 -82.7360 176° South 454 522 39,000  Level FlightAware
09:18PM 26.8550 -82.7310 177° South 455 524 39,000  Level FlightAware
09:18PM 26.7720 -82.7240 176° South 448 516 39,000  Level FlightAware
09:19PM 26.7060 -82.7190 176° South 450 518 39,000  Level FlightAware
09:19PM 26.6330 -82.7140 176° South 450 518 39,000  Level FlightAware
09:20PM 26.5600 -82.7080 176° South 451 519 39,000  Level FlightAware
09:21PM 26.4730 -82.7020 176° South 452 520 39,000  Level FlightAware
09:21PM 26.4230 -82.6980 176° South 453 521 39,000  Level FlightAware
09:22PM 26.3410 -82.6920 176° South 452 520 39,000  Level FlightAware
09:22PM 26.2640 -82.6860 176° South 449 517 39,000  Level FlightAware
09:23PM 26.1800 -82.6790 176° South 455 524 39,000  Level FlightAware
09:24PM 26.1190 -82.6750 177° South 455 524 39,000  Level FlightAware
09:24PM 26.0440 -82.6690 176° South 448 516 39,000  Level FlightAware
09:25PM 25.9660 -82.6630 176° South 455 524 39,000  Level FlightAware
09:26PM 25.8600 -82.6560 177° South 480 552 39,000  Level FlightAware
09:26PM 25.7920 -82.6510 176° South 451 519 39,000  Level FlightAware
09:27PM 25.7050 -82.6440 176° South 451 519 39,000  Level FlightAware
09:28PM 25.6210 -82.6380 176° South 448 516 39,000  Level FlightAware
09:28PM 25.5610 -82.6330 176° South 447 514 39,000  Level FlightAware
09:29PM 25.4590 -82.6260 176° South 448 516 39,000  Level FlightAware
09:29PM 25.3860 -82.6200 176° South 449 517 39,000 -540 Level FlightAware
09:30PM 25.3150 -82.6150 176° South 452 520 38,400 -1,020 Descending FlightAware
09:31PM 25.2080 -82.6070 176° South 448 516 37,600 -1,020 Descending FlightAware
09:31PM 25.1370 -82.6020 176° South 454 522 37,000 -960 Descending FlightAware
09:32PM 25.0650 -82.5970 176° South 455 524 36,500 -960 Descending FlightAware
09:33PM 24.9890 -82.5910 176° South 450 518 35,900 -2,400 Descending FlightAware
09:33PM 24.9020 -82.5850 176° South 471 542 33,500 -3,300 Descending FlightAware
09:34PM 24.8130 -82.5780 176° South 466 536 31,300 -3,000 Descending FlightAware
09:35PM 24.7250 -82.5720 176° South 471 542 29,500 -2,700 Descending FlightAware
09:35PM 24.6470 -82.5660 176° South 454 522 28,100 -2,220 Descending FlightAware
09:36PM 24.5670 -82.5600 176° South 448 516 26,700 -1,080 Descending FlightAware
09:37PM 24.5000 -82.5550 176° South 448 516 26,700  Level FlightAware
09:37PM 24.4370 -82.5500 176° South 448 516 26,700  Level FlightAware
09:38PM 24.3740 -82.5450 176° South 448 516 26,700  Level FlightAware
09:38PM 24.3090 -82.5400 176° South 448 516 26,700  Level FlightAware
09:39PM 24.2440 -82.5350 176° South 448 516 26,700  Level FlightAware
09:39PM 24.1290 -82.5600 191° South 19,400 -15,120 Descending FlightAware
09:47PM 23.2668 -82.4217 175° South  Level FlightAware Approximate
09:48PM 23.1440 -82.4167 180° South  Level FlightAware Approximate
09:49PM 23.0224 -82.4000 180° South  Level FlightAware Approximate
09:50PM 22.9891 -82.4091 180° South  Level Estimated
09:51PM 22.9891 -82.4091 180° South  Level Estimated
09:52PM 22.9891 -82.4091 180° South  Level Estimated
09:53PM 22.9891 -82.4091 180° South  Level Estimated
09:54PM 22.9891 -82.4091 180° South  Level Estimated
09:55PM 22.9891 -82.4091 180° South  Level Estimated
09:56PM 22.9891 -82.4091 180° South  Level Estimated
09:57PM 22.9891 -82.4091 180° South  Level Estimated
09:58PM 22.9891 -82.4091 180° South  Level Estimated
09:59PM 22.9891 -82.4091 180° South  Level Estimated
10:00PM 22.9891 -82.4091 180° South  Level Estimated
10:01PM 22.9891 -82.4091 180° South  Level Estimated
10:02PM 22.9891 -82.4091 180° South  Level Estimated
10:03PM 22.9891 -82.4091 180° South  Level Estimated
10:04PM 22.9891 -82.4091 180° South  Level Estimated
10:05PM 22.9891 -82.4091 180° South  Level Estimated
10:06PM 22.9891 -82.4091 180° South  Level Estimated
10:07PM 22.9891 -82.4091 180° South  Level Estimated
10:08PM 22.9891 -82.4091 180° South  Level Estimated
10:09PM 22.9891 -82.4091 180° South  Level Estimated
10:10PM 22.9891 -82.4091 180° South  Level Estimated
10:11PM 22.9891 -82.4091 180° South  Level Estimated
10:12PM 22.9891 -82.4091 180° South  Level Estimated